<?xml version='1.0' encoding='UTF-8'?><gpx version="1.1" creator="JPX - https://github.com/jenetics/jpx" xmlns="http://www.topografix.com/GPX/1/1"><trk><trkseg><trkpt lat="45.59455164951045" lon="10.13456487838264"><ele>163.66666666666666</ele><time>2026-04-07T15:49:08Z</time></trkpt><trkpt lat="45.59446461362692" lon="10.13449986042937"><ele>163.33333333333331</ele><time>2026-04-07T15:49:30Z</time></trkpt><trkpt lat="45.59446865480648" lon="10.13461090873792"><ele>163.0</ele><time>2026-04-07T15:49:37Z</time></trkpt><trkpt lat="45.59446497837115" lon="10.134724933676436"><ele>162.66666666666666</ele><time>2026-04-07T15:49:41Z</time></trkpt><trkpt lat="45.594445960962695" lon="10.134814739105648"><ele>162.33333333333334</ele><time>2026-04-07T15:49:44Z</time></trkpt><trkpt lat="45.59444176667551" lon="10.134923507017156"><ele>162.0</ele><time>2026-04-07T15:49:48Z</time></trkpt><trkpt lat="45.5944369640464" lon="10.135030411128405"><ele>162.0</ele><time>2026-04-07T15:49:51Z</time></trkpt><trkpt lat="45.59444598939717" lon="10.135131710654552"><ele>162.0</ele><time>2026-04-07T15:49:54Z</time></trkpt><trkpt lat="45.59445160483535" lon="10.135226649910733"><ele>162.0</ele><time>2026-04-07T15:49:57Z</time></trkpt><trkpt lat="45.59446113021592" lon="10.135319424150332"><ele>162.0</ele><time>2026-04-07T15:50:00Z</time></trkpt><trkpt lat="45.59447949602734" lon="10.135436707039286"><ele>162.0</ele><time>2026-04-07T15:50:04Z</time></trkpt><trkpt lat="45.59449090021711" lon="10.1355366960016"><ele>162.0</ele><time>2026-04-07T15:50:07Z</time></trkpt><trkpt lat="45.59451292115094" lon="10.135638246522099"><ele>162.0</ele><time>2026-04-07T15:50:10Z</time></trkpt><trkpt lat="45.594528196815155" lon="10.13573942882658"><ele>162.28571428571428</ele><time>2026-04-07T15:50:13Z</time></trkpt><trkpt lat="45.59454486143217" lon="10.135831577647606"><ele>162.57142857142856</ele><time>2026-04-07T15:50:16Z</time></trkpt><trkpt lat="45.59456531518292" lon="10.135920590574239"><ele>162.85714285714283</ele><time>2026-04-07T15:50:19Z</time></trkpt><trkpt lat="45.59458187341423" lon="10.136023279699327"><ele>163.14285714285714</ele><time>2026-04-07T15:50:22Z</time></trkpt><trkpt lat="45.59459565735304" lon="10.136130891271332"><ele>163.42857142857142</ele><time>2026-04-07T15:50:25Z</time></trkpt><trkpt lat="45.594605654508875" lon="10.136226968851712"><ele>163.7142857142857</ele><time>2026-04-07T15:50:28Z</time></trkpt><trkpt lat="45.594617451675035" lon="10.136320513570233"><ele>164.0</ele><time>2026-04-07T15:50:31.001Z</time></trkpt><trkpt lat="45.59462977743883" lon="10.136413421928529"><ele>163.99999999999997</ele><time>2026-04-07T15:50:34.001Z</time></trkpt><trkpt lat="45.59463141861017" lon="10.136518901615522"><ele>164.0</ele><time>2026-04-07T15:50:37.001Z</time></trkpt><trkpt lat="45.59466845314197" lon="10.13660394050526"><ele>164.0</ele><time>2026-04-07T15:50:40.001Z</time></trkpt><trkpt lat="45.59472045773445" lon="10.136673434623384"><ele>164.0</ele><time>2026-04-07T15:50:43.001Z</time></trkpt><trkpt lat="45.59478530033601" lon="10.136694311564085"><ele>164.0</ele><time>2026-04-07T15:50:46.001Z</time></trkpt><trkpt lat="45.5948649590916" lon="10.136699930806047"><ele>163.99999999999997</ele><time>2026-04-07T15:50:50.001Z</time></trkpt><trkpt lat="45.59494917922841" lon="10.136708258964713"><ele>164.0</ele><time>2026-04-07T15:50:54.001Z</time></trkpt><trkpt lat="45.595012698740334" lon="10.136714490812878"><ele>163.7142857142857</ele><time>2026-04-07T15:50:57.001Z</time></trkpt><trkpt lat="45.59507648429439" lon="10.136720157672666"><ele>163.42857142857142</ele><time>2026-04-07T15:51:01.001Z</time></trkpt><trkpt lat="45.59513973087737" lon="10.136723397610538"><ele>163.14285714285714</ele><time>2026-04-07T15:51:04.001Z</time></trkpt><trkpt lat="45.595211003503444" lon="10.136759211450007"><ele>162.85714285714283</ele><time>2026-04-07T15:51:07.001Z</time></trkpt><trkpt lat="45.59524476420483" lon="10.136871027221982"><ele>162.57142857142856</ele><time>2026-04-07T15:51:11.001Z</time></trkpt><trkpt lat="45.59523910185787" lon="10.136972561784722"><ele>162.28571428571428</ele><time>2026-04-07T15:51:14.001Z</time></trkpt><trkpt lat="45.59524118313616" lon="10.137084228623594"><ele>162.0</ele><time>2026-04-07T15:51:18.001Z</time></trkpt><trkpt lat="45.59523426046698" lon="10.13719760195286"><ele>162.0</ele><time>2026-04-07T15:51:22.001Z</time></trkpt><trkpt lat="45.595216287916756" lon="10.137289714362137"><ele>162.0</ele><time>2026-04-07T15:51:25.001Z</time></trkpt><trkpt lat="45.595210193682256" lon="10.137410018861491"><ele>162.0</ele><time>2026-04-07T15:51:29.001Z</time></trkpt><trkpt lat="45.595207600005075" lon="10.137511480905099"><ele>162.0</ele><time>2026-04-07T15:51:32.001Z</time></trkpt><trkpt lat="45.595212054591265" lon="10.137617383632062"><ele>162.0</ele><time>2026-04-07T15:51:35.001Z</time></trkpt><trkpt lat="45.59522072847628" lon="10.137726252657282"><ele>162.0</ele><time>2026-04-07T15:51:38.001Z</time></trkpt><trkpt lat="45.59523615007427" lon="10.137824586995274"><ele>162.0</ele><time>2026-04-07T15:51:41.001Z</time></trkpt><trkpt lat="45.59524245943319" lon="10.137935243462284"><ele>162.0</ele><time>2026-04-07T15:51:44.001Z</time></trkpt><trkpt lat="45.59523915433127" lon="10.138050874596509"><ele>162.0</ele><time>2026-04-07T15:51:47.001Z</time></trkpt><trkpt lat="45.59524588048562" lon="10.138164439657183"><ele>162.0</ele><time>2026-04-07T15:51:50.001Z</time></trkpt><trkpt lat="45.595242448177025" lon="10.138280983642915"><ele>162.0</ele><time>2026-04-07T15:51:53.001Z</time></trkpt><trkpt lat="45.59526565274115" lon="10.138388136004657"><ele>162.0</ele><time>2026-04-07T15:51:56.001Z</time></trkpt><trkpt lat="45.59530441975698" lon="10.138498384054664"><ele>162.0</ele><time>2026-04-07T15:51:59.001Z</time></trkpt><trkpt lat="45.595342440559584" lon="10.13859085143295"><ele>162.5</ele><time>2026-04-07T15:52:02.001Z</time></trkpt><trkpt lat="45.595356355638536" lon="10.138701791714839"><ele>163.0</ele><time>2026-04-07T15:52:05.001Z</time></trkpt><trkpt lat="45.59538502480775" lon="10.138819442877162"><ele>163.5</ele><time>2026-04-07T15:52:08.001Z</time></trkpt><trkpt lat="45.5953865732459" lon="10.138930236875273"><ele>164.0</ele><time>2026-04-07T15:52:11.001Z</time></trkpt><trkpt lat="45.59539462890537" lon="10.139026790354082"><ele>164.5</ele><time>2026-04-07T15:52:14.001Z</time></trkpt><trkpt lat="45.59540071794481" lon="10.139141888262603"><ele>165.0</ele><time>2026-04-07T15:52:17.001Z</time></trkpt><trkpt lat="45.595409481776954" lon="10.139262740538102"><ele>165.0</ele><time>2026-04-07T15:52:20.001Z</time></trkpt><trkpt lat="45.59535749018019" lon="10.139358875239619"><ele>165.0</ele><time>2026-04-07T15:52:23.001Z</time></trkpt><trkpt lat="45.59530905154865" lon="10.139469129896598"><ele>165.0</ele><time>2026-04-07T15:52:26.001Z</time></trkpt><trkpt lat="45.59531839911696" lon="10.139583130389717"><ele>165.0</ele><time>2026-04-07T15:52:29.001Z</time></trkpt><trkpt lat="45.59531237620604" lon="10.139686860664908"><ele>165.0</ele><time>2026-04-07T15:52:32.001Z</time></trkpt><trkpt lat="45.595321018331525" lon="10.13979814096678"><ele>165.0</ele><time>2026-04-07T15:52:35.001Z</time></trkpt><trkpt lat="45.59535279221816" lon="10.139898223587856"><ele>164.85714285714286</ele><time>2026-04-07T15:52:38.001Z</time></trkpt><trkpt lat="45.59535470964321" lon="10.140000439095182"><ele>164.71428571428572</ele><time>2026-04-07T15:52:41.001Z</time></trkpt><trkpt lat="45.59538068411096" lon="10.140099430263408"><ele>164.57142857142856</ele><time>2026-04-07T15:52:44.001Z</time></trkpt><trkpt lat="45.59539927924201" lon="10.140206208347815"><ele>164.42857142857144</ele><time>2026-04-07T15:52:47.001Z</time></trkpt><trkpt lat="45.59541250851652" lon="10.140309998736402"><ele>164.28571428571428</ele><time>2026-04-07T15:52:50.001Z</time></trkpt><trkpt lat="45.59542633791768" lon="10.14040917490113"><ele>164.14285714285714</ele><time>2026-04-07T15:52:53.001Z</time></trkpt><trkpt lat="45.59543194119122" lon="10.140524832589962"><ele>164.0</ele><time>2026-04-07T15:52:56.001Z</time></trkpt><trkpt lat="45.5954325773726" lon="10.140634666769245"><ele>164.33333333333331</ele><time>2026-04-07T15:52:59.001Z</time></trkpt><trkpt lat="45.59546979834089" lon="10.140730197040192"><ele>164.66666666666666</ele><time>2026-04-07T15:53:02.001Z</time></trkpt><trkpt lat="45.595490480719945" lon="10.140849555478031"><ele>165.0</ele><time>2026-04-07T15:53:05.001Z</time></trkpt><trkpt lat="45.595511744768764" lon="10.140953399747511"><ele>165.33333333333334</ele><time>2026-04-07T15:53:08.001Z</time></trkpt><trkpt lat="45.59553153654848" lon="10.141055285719705"><ele>165.66666666666669</ele><time>2026-04-07T15:53:11.001Z</time></trkpt><trkpt lat="45.59555160257357" lon="10.14115587666181"><ele>166.0</ele><time>2026-04-07T15:53:14.001Z</time></trkpt><trkpt lat="45.59557805963666" lon="10.14125744074549"><ele>166.0</ele><time>2026-04-07T15:53:17.001Z</time></trkpt><trkpt lat="45.59560546793975" lon="10.14135511463114"><ele>166.0</ele><time>2026-04-07T15:53:20.001Z</time></trkpt><trkpt lat="45.595620023176174" lon="10.141454265370685"><ele>166.0</ele><time>2026-04-07T15:53:23.002Z</time></trkpt><trkpt lat="45.59564639553702" lon="10.141553164852583"><ele>166.0</ele><time>2026-04-07T15:53:26.002Z</time></trkpt><trkpt lat="45.59565757800519" lon="10.141686030537599"><ele>166.0</ele><time>2026-04-07T15:53:30.002Z</time></trkpt><trkpt lat="45.59566793810806" lon="10.141789082185387"><ele>166.0</ele><time>2026-04-07T15:53:33.002Z</time></trkpt><trkpt lat="45.595665697128695" lon="10.141902179257736"><ele>166.16666666666669</ele><time>2026-04-07T15:53:36.002Z</time></trkpt><trkpt lat="45.59566216620631" lon="10.142002032165749"><ele>166.33333333333334</ele><time>2026-04-07T15:53:39.002Z</time></trkpt><trkpt lat="45.59567794929638" lon="10.142109685802215"><ele>166.5</ele><time>2026-04-07T15:53:42.002Z</time></trkpt><trkpt lat="45.59567509936687" lon="10.142209960582623"><ele>166.66666666666666</ele><time>2026-04-07T15:53:45.002Z</time></trkpt><trkpt lat="45.59569277917002" lon="10.142329418079088"><ele>166.83333333333331</ele><time>2026-04-07T15:53:48.002Z</time></trkpt><trkpt lat="45.59571558843065" lon="10.142432203073332"><ele>167.0</ele><time>2026-04-07T15:53:51.002Z</time></trkpt><trkpt lat="45.5957179056108" lon="10.142543517191326"><ele>167.28571428571428</ele><time>2026-04-07T15:53:54.002Z</time></trkpt><trkpt lat="45.59568847735772" lon="10.142652784455866"><ele>167.57142857142858</ele><time>2026-04-07T15:53:57.002Z</time></trkpt><trkpt lat="45.595681731174786" lon="10.14274726255216"><ele>167.85714285714286</ele><time>2026-04-07T15:54:00.002Z</time></trkpt><trkpt lat="45.59568798209276" lon="10.142840828647174"><ele>168.14285714285714</ele><time>2026-04-07T15:54:03.002Z</time></trkpt><trkpt lat="45.59568507618512" lon="10.142945388313318"><ele>168.42857142857142</ele><time>2026-04-07T15:54:07.002Z</time></trkpt><trkpt lat="45.59568891579556" lon="10.143041418292647"><ele>168.71428571428572</ele><time>2026-04-07T15:54:10.002Z</time></trkpt><trkpt lat="45.59568342472682" lon="10.143131774887229"><ele>169.0</ele><time>2026-04-07T15:54:13.002Z</time></trkpt><trkpt lat="45.59567761942098" lon="10.143239247159736"><ele>170.0</ele><time>2026-04-07T15:54:16.002Z</time></trkpt><trkpt lat="45.59565411883918" lon="10.143355011579287"><ele>171.0</ele><time>2026-04-07T15:54:20.002Z</time></trkpt><trkpt lat="45.59562890864122" lon="10.143446291182824"><ele>172.0</ele><time>2026-04-07T15:54:23.002Z</time></trkpt><trkpt lat="45.59558716423951" lon="10.143549230095823"><ele>173.0</ele><time>2026-04-07T15:54:26.002Z</time></trkpt><trkpt lat="45.59554493860382" lon="10.14365625693254"><ele>174.0</ele><time>2026-04-07T15:54:29.002Z</time></trkpt><trkpt lat="45.59551183880829" lon="10.143756936675045"><ele>175.0</ele><time>2026-04-07T15:54:32.002Z</time></trkpt><trkpt lat="45.59547500257484" lon="10.143862285191217"><ele>175.0</ele><time>2026-04-07T15:54:35.002Z</time></trkpt><trkpt lat="45.595454901097305" lon="10.143972212079541"><ele>175.0</ele><time>2026-04-07T15:54:38.002Z</time></trkpt><trkpt lat="45.595425640251946" lon="10.144080797003154"><ele>175.0</ele><time>2026-04-07T15:54:41.002Z</time></trkpt><trkpt lat="45.59540422723766" lon="10.144185819588968"><ele>175.0</ele><time>2026-04-07T15:54:44.002Z</time></trkpt><trkpt lat="45.59536710253682" lon="10.144293647816372"><ele>175.0</ele><time>2026-04-07T15:54:47.002Z</time></trkpt><trkpt lat="45.595354465324306" lon="10.144391614909022"><ele>175.0</ele><time>2026-04-07T15:54:50.002Z</time></trkpt><trkpt lat="45.59532349627856" lon="10.144498367123123"><ele>174.57142857142858</ele><time>2026-04-07T15:54:53.002Z</time></trkpt><trkpt lat="45.595293379889036" lon="10.144598955059742"><ele>174.14285714285714</ele><time>2026-04-07T15:54:56.002Z</time></trkpt><trkpt lat="45.59527742077348" lon="10.144714990156151"><ele>173.71428571428572</ele><time>2026-04-07T15:54:59.002Z</time></trkpt><trkpt lat="45.595251471902635" lon="10.144816436335175"><ele>173.28571428571428</ele><time>2026-04-07T15:55:02.002Z</time></trkpt><trkpt lat="45.59523305489153" lon="10.144920890156412"><ele>172.85714285714286</ele><time>2026-04-07T15:55:05.002Z</time></trkpt><trkpt lat="45.59523178281959" lon="10.145013471112456"><ele>172.42857142857144</ele><time>2026-04-07T15:55:08.002Z</time></trkpt><trkpt lat="45.595225764154904" lon="10.145113493726113"><ele>172.0</ele><time>2026-04-07T15:55:11.002Z</time></trkpt><trkpt lat="45.59521096949912" lon="10.145227378601678"><ele>172.0</ele><time>2026-04-07T15:55:14.002Z</time></trkpt><trkpt lat="45.59519751696033" lon="10.145347172010778"><ele>172.0</ele><time>2026-04-07T15:55:17.002Z</time></trkpt><trkpt lat="45.59520142277282" lon="10.14545373538556"><ele>172.0</ele><time>2026-04-07T15:55:20.002Z</time></trkpt><trkpt lat="45.595205359805995" lon="10.145562239230625"><ele>172.0</ele><time>2026-04-07T15:55:23.002Z</time></trkpt><trkpt lat="45.59520204738417" lon="10.145675382993428"><ele>172.0</ele><time>2026-04-07T15:55:26.002Z</time></trkpt><trkpt lat="45.59520365261629" lon="10.145775873732765"><ele>172.0</ele><time>2026-04-07T15:55:29.002Z</time></trkpt><trkpt lat="45.59520245180837" lon="10.145871434404668"><ele>172.57142857142858</ele><time>2026-04-07T15:55:32.002Z</time></trkpt><trkpt lat="45.595199246113665" lon="10.145967665763184"><ele>173.14285714285714</ele><time>2026-04-07T15:55:35.002Z</time></trkpt><trkpt lat="45.59521169793493" lon="10.146073525453314"><ele>173.71428571428572</ele><time>2026-04-07T15:55:38.002Z</time></trkpt><trkpt lat="45.59521894603664" lon="10.146176028578495"><ele>174.28571428571428</ele><time>2026-04-07T15:55:41.002Z</time></trkpt><trkpt lat="45.59521635551753" lon="10.146281999489428"><ele>174.85714285714286</ele><time>2026-04-07T15:55:44.002Z</time></trkpt><trkpt lat="45.595207067161624" lon="10.146386945579641"><ele>175.42857142857144</ele><time>2026-04-07T15:55:47.002Z</time></trkpt><trkpt lat="45.595218378467884" lon="10.146495225592647"><ele>176.0</ele><time>2026-04-07T15:55:50.002Z</time></trkpt><trkpt lat="45.59522970306518" lon="10.146599808385078"><ele>176.85714285714286</ele><time>2026-04-07T15:55:53.002Z</time></trkpt><trkpt lat="45.59523797336648" lon="10.14670477060463"><ele>177.71428571428572</ele><time>2026-04-07T15:55:56.002Z</time></trkpt><trkpt lat="45.59524204747378" lon="10.146807497302245"><ele>178.57142857142856</ele><time>2026-04-07T15:55:59.002Z</time></trkpt><trkpt lat="45.59525151185248" lon="10.146902601560125"><ele>179.42857142857144</ele><time>2026-04-07T15:56:02.002Z</time></trkpt><trkpt lat="45.59525915204004" lon="10.147004685248447"><ele>180.28571428571428</ele><time>2026-04-07T15:56:05.002Z</time></trkpt><trkpt lat="45.59526572627143" lon="10.147103138592518"><ele>181.14285714285714</ele><time>2026-04-07T15:56:08.002Z</time></trkpt><trkpt lat="45.59529164862004" lon="10.147202620865768"><ele>182.0</ele><time>2026-04-07T15:56:11.002Z</time></trkpt><trkpt lat="45.59527797551547" lon="10.147306027609114"><ele>182.0</ele><time>2026-04-07T15:56:14.002Z</time></trkpt><trkpt lat="45.595201329168916" lon="10.147337209206508"><ele>182.0</ele><time>2026-04-07T15:56:17.003Z</time></trkpt><trkpt lat="45.59512802857626" lon="10.14733434682256"><ele>182.0</ele><time>2026-04-07T15:56:20.003Z</time></trkpt><trkpt lat="45.59504692653339" lon="10.147331694339519"><ele>182.0</ele><time>2026-04-07T15:56:23.003Z</time></trkpt><trkpt lat="45.59496389923124" lon="10.147335180878667"><ele>182.0</ele><time>2026-04-07T15:56:26.003Z</time></trkpt><trkpt lat="45.59488301227517" lon="10.147326129279366"><ele>182.0</ele><time>2026-04-07T15:56:29.003Z</time></trkpt><trkpt lat="45.59480781102082" lon="10.147316512763615"><ele>182.0</ele><time>2026-04-07T15:56:35.003Z</time></trkpt><trkpt lat="45.594723040006215" lon="10.147312839982876"><ele>182.0</ele><time>2026-04-07T15:56:38.003Z</time></trkpt><trkpt lat="45.59464443587182" lon="10.14730336777624"><ele>182.0</ele><time>2026-04-07T15:56:41.003Z</time></trkpt><trkpt lat="45.59457171494915" lon="10.147281043767492"><ele>182.0</ele><time>2026-04-07T15:56:44.003Z</time></trkpt><trkpt lat="45.59449155488022" lon="10.147268037583592"><ele>182.0</ele><time>2026-04-07T15:56:47.003Z</time></trkpt><trkpt lat="45.59442902101391" lon="10.147305506674494"><ele>182.0</ele><time>2026-04-07T15:56:50.003Z</time></trkpt><trkpt lat="45.59439803439092" lon="10.147412074393236"><ele>183.5</ele><time>2026-04-07T15:56:53.003Z</time></trkpt><trkpt lat="45.594391600744686" lon="10.147515026924479"><ele>185.0</ele><time>2026-04-07T15:56:56.003Z</time></trkpt><trkpt lat="45.594377668401854" lon="10.147626599572101"><ele>186.5</ele><time>2026-04-07T15:56:59.003Z</time></trkpt><trkpt lat="45.59436397703589" lon="10.147742581288067"><ele>188.0</ele><time>2026-04-07T15:57:02.003Z</time></trkpt><trkpt lat="45.5943646054332" lon="10.147847120838485"><ele>189.5</ele><time>2026-04-07T15:57:05.003Z</time></trkpt><trkpt lat="45.59436193545479" lon="10.147953251404696"><ele>191.0</ele><time>2026-04-07T15:57:08.003Z</time></trkpt><trkpt lat="45.59434873253645" lon="10.148057014045667"><ele>191.0</ele><time>2026-04-07T15:57:11.003Z</time></trkpt><trkpt lat="45.59434845423606" lon="10.148166908378322"><ele>191.0</ele><time>2026-04-07T15:57:14.003Z</time></trkpt><trkpt lat="45.59433350897907" lon="10.148287077170071"><ele>191.0</ele><time>2026-04-07T15:57:17.003Z</time></trkpt><trkpt lat="45.594325050567186" lon="10.148399739938059"><ele>191.0</ele><time>2026-04-07T15:57:20.003Z</time></trkpt><trkpt lat="45.594322380936894" lon="10.14850069049601"><ele>191.0</ele><time>2026-04-07T15:57:23.003Z</time></trkpt><trkpt lat="45.594314694047846" lon="10.148598426101037"><ele>191.0</ele><time>2026-04-07T15:57:26.003Z</time></trkpt><trkpt lat="45.59429222646999" lon="10.148699600210124"><ele>190.16666666666666</ele><time>2026-04-07T15:57:29.003Z</time></trkpt><trkpt lat="45.594274667011504" lon="10.148802633310716"><ele>189.33333333333331</ele><time>2026-04-07T15:57:32.003Z</time></trkpt><trkpt lat="45.594268145270206" lon="10.148915419110427"><ele>188.5</ele><time>2026-04-07T15:57:35.003Z</time></trkpt><trkpt lat="45.59425817279615" lon="10.149020679565824"><ele>187.66666666666666</ele><time>2026-04-07T15:57:38.003Z</time></trkpt><trkpt lat="45.59421882490442" lon="10.149117206925279"><ele>186.83333333333334</ele><time>2026-04-07T15:57:41.003Z</time></trkpt><trkpt lat="45.59417485692152" lon="10.14921089250363"><ele>186.0</ele><time>2026-04-07T15:57:44.003Z</time></trkpt><trkpt lat="45.59412021450069" lon="10.149302460057145"><ele>185.66666666666666</ele><time>2026-04-07T15:57:47.003Z</time></trkpt><trkpt lat="45.594075477668646" lon="10.149398984392478"><ele>185.33333333333334</ele><time>2026-04-07T15:57:50.003Z</time></trkpt><trkpt lat="45.59403451426968" lon="10.149495688672644"><ele>185.0</ele><time>2026-04-07T15:57:53.003Z</time></trkpt><trkpt lat="45.593998866568995" lon="10.149596266286931"><ele>184.66666666666669</ele><time>2026-04-07T15:57:56.003Z</time></trkpt><trkpt lat="45.59397464117937" lon="10.149705985917947"><ele>184.33333333333334</ele><time>2026-04-07T15:57:59.003Z</time></trkpt><trkpt lat="45.59394772249397" lon="10.149813783801086"><ele>184.0</ele><time>2026-04-07T15:58:02.003Z</time></trkpt><trkpt lat="45.593924080456596" lon="10.14989762932736"><ele>183.66666666666669</ele><time>2026-04-07T15:58:05.003Z</time></trkpt><trkpt lat="45.593898040678916" lon="10.15000294365504"><ele>183.33333333333334</ele><time>2026-04-07T15:58:08.003Z</time></trkpt><trkpt lat="45.593863807991006" lon="10.150124244717636"><ele>183.0</ele><time>2026-04-07T15:58:11.003Z</time></trkpt><trkpt lat="45.59384261359183" lon="10.150227030440552"><ele>182.66666666666666</ele><time>2026-04-07T15:58:14.003Z</time></trkpt><trkpt lat="45.59381638204085" lon="10.150338752505911"><ele>182.33333333333331</ele><time>2026-04-07T15:58:17.003Z</time></trkpt><trkpt lat="45.59380259576443" lon="10.150446807498168"><ele>182.0</ele><time>2026-04-07T15:58:20.003Z</time></trkpt><trkpt lat="45.59377316881624" lon="10.150556695195712"><ele>182.0</ele><time>2026-04-07T15:58:23.003Z</time></trkpt><trkpt lat="45.593756460120844" lon="10.150678934608232"><ele>182.0</ele><time>2026-04-07T15:58:26.003Z</time></trkpt><trkpt lat="45.59373489184116" lon="10.150783293681076"><ele>182.0</ele><time>2026-04-07T15:58:29.003Z</time></trkpt><trkpt lat="45.59370284843898" lon="10.150885003482832"><ele>182.0</ele><time>2026-04-07T15:58:32.003Z</time></trkpt><trkpt lat="45.5936524974052" lon="10.150969577748842"><ele>182.0</ele><time>2026-04-07T15:58:35.003Z</time></trkpt><trkpt lat="45.593623412049446" lon="10.151075448116687"><ele>182.0</ele><time>2026-04-07T15:58:38.003Z</time></trkpt><trkpt lat="45.593600948974824" lon="10.151181492185165"><ele>181.71428571428572</ele><time>2026-04-07T15:58:41.003Z</time></trkpt><trkpt lat="45.59358710097414" lon="10.151284541108843"><ele>181.42857142857144</ele><time>2026-04-07T15:58:44.003Z</time></trkpt><trkpt lat="45.593580273772474" lon="10.151386354289"><ele>181.14285714285714</ele><time>2026-04-07T15:58:47.003Z</time></trkpt><trkpt lat="45.59359102870662" lon="10.15149140875231"><ele>180.85714285714286</ele><time>2026-04-07T15:58:50.003Z</time></trkpt><trkpt lat="45.59355946414933" lon="10.151574867076349"><ele>180.57142857142858</ele><time>2026-04-07T15:58:53.003Z</time></trkpt><trkpt lat="45.59350376002778" lon="10.151645006168623"><ele>180.28571428571428</ele><time>2026-04-07T15:58:56.003Z</time></trkpt><trkpt lat="45.59345672555922" lon="10.151743034251398"><ele>180.0</ele><time>2026-04-07T15:58:59.003Z</time></trkpt><trkpt lat="45.59344101038675" lon="10.151852414168436"><ele>180.0</ele><time>2026-04-07T15:59:02.003Z</time></trkpt><trkpt lat="45.59342846378911" lon="10.151957441993456"><ele>180.0</ele><time>2026-04-07T15:59:05.003Z</time></trkpt><trkpt lat="45.59343166639646" lon="10.152055140945397"><ele>180.0</ele><time>2026-04-07T15:59:08.004Z</time></trkpt><trkpt lat="45.593413115523255" lon="10.152151597490631"><ele>180.0</ele><time>2026-04-07T15:59:11.004Z</time></trkpt><trkpt lat="45.59340010511389" lon="10.152273406518137"><ele>180.0</ele><time>2026-04-07T15:59:14.004Z</time></trkpt><trkpt lat="45.59339828066571" lon="10.15238917433983"><ele>180.0</ele><time>2026-04-07T15:59:17.004Z</time></trkpt><trkpt lat="45.59339100340833" lon="10.152495957856049"><ele>180.16666666666666</ele><time>2026-04-07T15:59:20.004Z</time></trkpt><trkpt lat="45.59333459780749" lon="10.152594651152079"><ele>180.33333333333334</ele><time>2026-04-07T15:59:23.004Z</time></trkpt><trkpt lat="45.59324925266044" lon="10.152600798404734"><ele>180.5</ele><time>2026-04-07T15:59:25.004Z</time></trkpt><trkpt lat="45.59317780188726" lon="10.152591373314992"><ele>180.66666666666669</ele><time>2026-04-07T15:59:27.004Z</time></trkpt><trkpt lat="45.59311045208898" lon="10.152587197782111"><ele>180.83333333333334</ele><time>2026-04-07T15:59:29.004Z</time></trkpt><trkpt lat="45.59303674287518" lon="10.152619719883988"><ele>181.0</ele><time>2026-04-07T15:59:32.004Z</time></trkpt><trkpt lat="45.59295020180693" lon="10.152617611508848"><ele>181.0</ele><time>2026-04-07T15:59:35.004Z</time></trkpt><trkpt lat="45.592867972236775" lon="10.152613771687387"><ele>181.0</ele><time>2026-04-07T15:59:38.004Z</time></trkpt><trkpt lat="45.59280356905992" lon="10.152619548095233"><ele>181.0</ele><time>2026-04-07T15:59:40.004Z</time></trkpt><trkpt lat="45.59272612392901" lon="10.152627507209994"><ele>181.0</ele><time>2026-04-07T15:59:43.004Z</time></trkpt><trkpt lat="45.592652015110545" lon="10.152606087202559"><ele>181.0</ele><time>2026-04-07T15:59:46.004Z</time></trkpt><trkpt lat="45.592575301022116" lon="10.152602062662163"><ele>181.0</ele><time>2026-04-07T15:59:49.004Z</time></trkpt><trkpt lat="45.592502074291964" lon="10.152600742294021"><ele>181.0</ele><time>2026-04-07T15:59:52.004Z</time></trkpt><trkpt lat="45.59243621987661" lon="10.152594672618685"><ele>181.0</ele><time>2026-04-07T15:59:55.004Z</time></trkpt><trkpt lat="45.59235949972599" lon="10.152594395475772"><ele>181.0</ele><time>2026-04-07T15:59:58.004Z</time></trkpt><trkpt lat="45.59229127768905" lon="10.15256013862718"><ele>181.0</ele><time>2026-04-07T16:00:01.004Z</time></trkpt><trkpt lat="45.592267189086165" lon="10.152469084039069"><ele>181.0</ele><time>2026-04-07T16:00:03.004Z</time></trkpt><trkpt lat="45.59228419444288" lon="10.152356879139806"><ele>181.0</ele><time>2026-04-07T16:00:06.004Z</time></trkpt><trkpt lat="45.59223926375588" lon="10.15227366241451"><ele>181.0</ele><time>2026-04-07T16:00:09.004Z</time></trkpt><trkpt lat="45.59216393320535" lon="10.152248339724101"><ele>182.0</ele><time>2026-04-07T16:00:12.004Z</time></trkpt><trkpt lat="45.59209075195834" lon="10.152256996919052"><ele>183.0</ele><time>2026-04-07T16:00:15.004Z</time></trkpt><trkpt lat="45.592016520758925" lon="10.152230681792819"><ele>184.0</ele><time>2026-04-07T16:00:18.004Z</time></trkpt><trkpt lat="45.59194132014007" lon="10.152211498668798"><ele>185.0</ele><time>2026-04-07T16:00:21.004Z</time></trkpt><trkpt lat="45.59187282994279" lon="10.1521967733272"><ele>186.0</ele><time>2026-04-07T16:00:24.004Z</time></trkpt><trkpt lat="45.591798956918396" lon="10.152142517562707"><ele>187.0</ele><time>2026-04-07T16:00:27.004Z</time></trkpt><trkpt lat="45.59173734025813" lon="10.152047631991065"><ele>187.0</ele><time>2026-04-07T16:00:30.004Z</time></trkpt><trkpt lat="45.591662917917716" lon="10.15200167949049"><ele>187.0</ele><time>2026-04-07T16:00:33.004Z</time></trkpt><trkpt lat="45.59158604878055" lon="10.15198913309465"><ele>187.0</ele><time>2026-04-07T16:00:36.004Z</time></trkpt><trkpt lat="45.59151698800855" lon="10.151974399141253"><ele>187.0</ele><time>2026-04-07T16:00:39.004Z</time></trkpt><trkpt lat="45.59143900103765" lon="10.151992295375624"><ele>187.0</ele><time>2026-04-07T16:00:42.004Z</time></trkpt><trkpt lat="45.591358726669625" lon="10.152020112735627"><ele>187.0</ele><time>2026-04-07T16:00:45.004Z</time></trkpt><trkpt lat="45.591287176834015" lon="10.152029225656019"><ele>187.0</ele><time>2026-04-07T16:00:48.004Z</time></trkpt><trkpt lat="45.5912280413117" lon="10.151996120726508"><ele>187.0</ele><time>2026-04-07T16:00:50.004Z</time></trkpt><trkpt lat="45.59116905642878" lon="10.151948856410018"><ele>187.0</ele><time>2026-04-07T16:00:52.004Z</time></trkpt><trkpt lat="45.591089145696984" lon="10.1519335018008"><ele>187.0</ele><time>2026-04-07T16:00:55.004Z</time></trkpt><trkpt lat="45.59101279004978" lon="10.15191379805026"><ele>187.0</ele><time>2026-04-07T16:00:58.004Z</time></trkpt><trkpt lat="45.590950399765866" lon="10.151885929811604"><ele>187.0</ele><time>2026-04-07T16:01:01.004Z</time></trkpt><trkpt lat="45.59088752279653" lon="10.151852467404613"><ele>187.0</ele><time>2026-04-07T16:01:04.004Z</time></trkpt><trkpt lat="45.59080377967936" lon="10.151853030056007"><ele>186.57142857142856</ele><time>2026-04-07T16:01:07.004Z</time></trkpt><trkpt lat="45.59073398877181" lon="10.151837834007344"><ele>186.14285714285717</ele><time>2026-04-07T16:01:10.004Z</time></trkpt><trkpt lat="45.59066881651626" lon="10.151805713345933"><ele>185.71428571428572</ele><time>2026-04-07T16:01:13.004Z</time></trkpt><trkpt lat="45.59059821064584" lon="10.151776759934876"><ele>185.28571428571428</ele><time>2026-04-07T16:01:16.004Z</time></trkpt><trkpt lat="45.59052964000687" lon="10.151736309405042"><ele>184.85714285714283</ele><time>2026-04-07T16:01:19.004Z</time></trkpt><trkpt lat="45.59046653828582" lon="10.151687367297418"><ele>184.42857142857144</ele><time>2026-04-07T16:01:22.004Z</time></trkpt><trkpt lat="45.5904020364533" lon="10.151634552355468"><ele>184.0</ele><time>2026-04-07T16:01:25.004Z</time></trkpt><trkpt lat="45.59033741946942" lon="10.151600249654564"><ele>183.71428571428572</ele><time>2026-04-07T16:01:28.004Z</time></trkpt><trkpt lat="45.59027333217481" lon="10.151564690234313"><ele>183.42857142857142</ele><time>2026-04-07T16:01:31.004Z</time></trkpt><trkpt lat="45.590216711905015" lon="10.151490987816665"><ele>183.14285714285714</ele><time>2026-04-07T16:01:34.004Z</time></trkpt><trkpt lat="45.59015910896049" lon="10.151425134822672"><ele>182.85714285714286</ele><time>2026-04-07T16:01:37.004Z</time></trkpt><trkpt lat="45.590105574689986" lon="10.151363494055843"><ele>182.57142857142856</ele><time>2026-04-07T16:01:40.004Z</time></trkpt><trkpt lat="45.59006833262156" lon="10.151270628840962"><ele>182.28571428571428</ele><time>2026-04-07T16:01:43.004Z</time></trkpt><trkpt lat="45.590005904642766" lon="10.151209815485206"><ele>182.0</ele><time>2026-04-07T16:01:46.004Z</time></trkpt><trkpt lat="45.58995095917497" lon="10.151135293051116"><ele>182.0</ele><time>2026-04-07T16:01:49.004Z</time></trkpt><trkpt lat="45.58990545595498" lon="10.1510472439975"><ele>182.0</ele><time>2026-04-07T16:01:52.004Z</time></trkpt><trkpt lat="45.58986238805058" lon="10.150968732526133"><ele>182.0</ele><time>2026-04-07T16:01:55.004Z</time></trkpt><trkpt lat="45.58982234405913" lon="10.150875728544737"><ele>182.0</ele><time>2026-04-07T16:01:58.004Z</time></trkpt><trkpt lat="45.58976503318989" lon="10.150788855820513"><ele>182.0</ele><time>2026-04-07T16:02:02.005Z</time></trkpt><trkpt lat="45.58970927634042" lon="10.150726163988823"><ele>182.0</ele><time>2026-04-07T16:02:05.005Z</time></trkpt><trkpt lat="45.5896323836288" lon="10.150701108699495"><ele>182.0</ele><time>2026-04-07T16:02:09.005Z</time></trkpt><trkpt lat="45.58957743879458" lon="10.15063852993229"><ele>182.0</ele><time>2026-04-07T16:02:12.005Z</time></trkpt><trkpt lat="45.589492557565386" lon="10.1506562084385"><ele>182.0</ele><time>2026-04-07T16:02:15.005Z</time></trkpt><trkpt lat="45.589457358715585" lon="10.150734218614408"><ele>182.0</ele><time>2026-04-07T16:02:17.005Z</time></trkpt><trkpt lat="45.58940846976208" lon="10.150819116551284"><ele>182.0</ele><time>2026-04-07T16:02:20.005Z</time></trkpt><trkpt lat="45.589355766771455" lon="10.150897284699003"><ele>182.0</ele><time>2026-04-07T16:02:24.005Z</time></trkpt><trkpt lat="45.58931345930221" lon="10.150986822694835"><ele>182.0</ele><time>2026-04-07T16:02:27.005Z</time></trkpt><trkpt lat="45.58926146122801" lon="10.151062392678801"><ele>180.14285714285714</ele><time>2026-04-07T16:02:30.005Z</time></trkpt><trkpt lat="45.58920471377868" lon="10.151108554543685"><ele>178.28571428571428</ele><time>2026-04-07T16:02:33.005Z</time></trkpt><trkpt lat="45.58914172448883" lon="10.151159468124684"><ele>176.42857142857144</ele><time>2026-04-07T16:02:36.005Z</time></trkpt><trkpt lat="45.58909699296417" lon="10.151239294601945"><ele>174.57142857142856</ele><time>2026-04-07T16:02:39.005Z</time></trkpt><trkpt lat="45.589063620902685" lon="10.15132819001632"><ele>172.71428571428572</ele><time>2026-04-07T16:02:42.005Z</time></trkpt><trkpt lat="45.58901877954717" lon="10.151406023999435"><ele>170.85714285714286</ele><time>2026-04-07T16:02:45.005Z</time></trkpt><trkpt lat="45.58898716127096" lon="10.15151485310617"><ele>169.0</ele><time>2026-04-07T16:02:49.005Z</time></trkpt><trkpt lat="45.588956611885095" lon="10.151610199216318"><ele>169.0</ele><time>2026-04-07T16:02:52.005Z</time></trkpt><trkpt lat="45.58890439954905" lon="10.15166201300684"><ele>169.0</ele><time>2026-04-07T16:02:55.005Z</time></trkpt><trkpt lat="45.588847680398175" lon="10.151741627398867"><ele>169.0</ele><time>2026-04-07T16:03:00.005Z</time></trkpt><trkpt lat="45.58877630260945" lon="10.15173247205494"><ele>169.0</ele><time>2026-04-07T16:03:03.005Z</time></trkpt><trkpt lat="45.588703813408884" lon="10.151680486890116"><ele>169.0</ele><time>2026-04-07T16:03:06.005Z</time></trkpt><trkpt lat="45.58863463234482" lon="10.15164805290773"><ele>169.0</ele><time>2026-04-07T16:03:09.005Z</time></trkpt><trkpt lat="45.588549669215446" lon="10.151646092373193"><ele>168.5</ele><time>2026-04-07T16:03:12.005Z</time></trkpt><trkpt lat="45.58847562812242" lon="10.151659666138958"><ele>168.0</ele><time>2026-04-07T16:03:15.005Z</time></trkpt><trkpt lat="45.58840798230831" lon="10.151655752011163"><ele>167.5</ele><time>2026-04-07T16:03:18.005Z</time></trkpt><trkpt lat="45.58833449629382" lon="10.151652455873966"><ele>167.0</ele><time>2026-04-07T16:03:21.005Z</time></trkpt><trkpt lat="45.588260224006355" lon="10.15163484269425"><ele>166.5</ele><time>2026-04-07T16:03:24.005Z</time></trkpt><trkpt lat="45.58818688271687" lon="10.15163401109915"><ele>166.0</ele><time>2026-04-07T16:03:27.005Z</time></trkpt><trkpt lat="45.58810411737385" lon="10.151676103730553"><ele>166.0</ele><time>2026-04-07T16:03:30.005Z</time></trkpt><trkpt lat="45.58802647218598" lon="10.151707837558897"><ele>166.0</ele><time>2026-04-07T16:03:33.005Z</time></trkpt><trkpt lat="45.58795291128431" lon="10.15175458884096"><ele>166.0</ele><time>2026-04-07T16:03:36.005Z</time></trkpt><trkpt lat="45.58788249570222" lon="10.151777531114783"><ele>166.0</ele><time>2026-04-07T16:03:39.005Z</time></trkpt><trkpt lat="45.587811420221165" lon="10.151802880840707"><ele>166.0</ele><time>2026-04-07T16:03:42.005Z</time></trkpt><trkpt lat="45.5877265718422" lon="10.151812219049445"><ele>166.0</ele><time>2026-04-07T16:03:45.005Z</time></trkpt><trkpt lat="45.5876390901353" lon="10.151821797179714"><ele>166.0</ele><time>2026-04-07T16:03:48.005Z</time></trkpt><trkpt lat="45.58756874015309" lon="10.151778825121271"><ele>166.0</ele><time>2026-04-07T16:03:52.005Z</time></trkpt><trkpt lat="45.58750282210991" lon="10.15174436793337"><ele>166.0</ele><time>2026-04-07T16:03:55.005Z</time></trkpt><trkpt lat="45.587426536928454" lon="10.151713587608883"><ele>166.0</ele><time>2026-04-07T16:03:58.005Z</time></trkpt><trkpt lat="45.58735892502511" lon="10.151689313763956"><ele>166.0</ele><time>2026-04-07T16:04:01.005Z</time></trkpt><trkpt lat="45.58728167146008" lon="10.151691408757854"><ele>166.0</ele><time>2026-04-07T16:04:04.005Z</time></trkpt><trkpt lat="45.58720624300671" lon="10.151682442819705"><ele>166.0</ele><time>2026-04-07T16:04:07.005Z</time></trkpt><trkpt lat="45.58713967454415" lon="10.151676114116574"><ele>166.0</ele><time>2026-04-07T16:04:10.005Z</time></trkpt><trkpt lat="45.58706756883977" lon="10.151678057972013"><ele>166.0</ele><time>2026-04-07T16:04:13.005Z</time></trkpt><trkpt lat="45.586992332894475" lon="10.151668684394144"><ele>166.0</ele><time>2026-04-07T16:04:16.005Z</time></trkpt><trkpt lat="45.586913392123655" lon="10.151672188848448"><ele>166.0</ele><time>2026-04-07T16:04:19.005Z</time></trkpt><trkpt lat="45.58683646551761" lon="10.15168491882337"><ele>166.0</ele><time>2026-04-07T16:04:22.005Z</time></trkpt><trkpt lat="45.58674990838719" lon="10.151685368195185"><ele>166.0</ele><time>2026-04-07T16:04:26.005Z</time></trkpt><trkpt lat="45.58667730855225" lon="10.15167675834507"><ele>165.66666666666669</ele><time>2026-04-07T16:04:29.005Z</time></trkpt><trkpt lat="45.58659427973605" lon="10.151713394129892"><ele>165.33333333333334</ele><time>2026-04-07T16:04:32.005Z</time></trkpt><trkpt lat="45.58652311684135" lon="10.151746800175042"><ele>165.0</ele><time>2026-04-07T16:04:35.005Z</time></trkpt><trkpt lat="45.58645422515005" lon="10.1517974603414"><ele>164.66666666666666</ele><time>2026-04-07T16:04:38.005Z</time></trkpt><trkpt lat="45.586377788125304" lon="10.15183162222132"><ele>164.33333333333331</ele><time>2026-04-07T16:04:41.005Z</time></trkpt><trkpt lat="45.586294291738554" lon="10.151823066747173"><ele>164.0</ele><time>2026-04-07T16:04:44.005Z</time></trkpt><trkpt lat="45.586215089916166" lon="10.151809495306484"><ele>163.5</ele><time>2026-04-07T16:04:47.005Z</time></trkpt><trkpt lat="45.58613931120356" lon="10.151784567739261"><ele>163.0</ele><time>2026-04-07T16:04:50.005Z</time></trkpt><trkpt lat="45.58605827890116" lon="10.151775896308996"><ele>162.5</ele><time>2026-04-07T16:04:53.005Z</time></trkpt><trkpt lat="45.585991536127885" lon="10.151792902554114"><ele>162.0</ele><time>2026-04-07T16:04:55.006Z</time></trkpt><trkpt lat="45.58589881459956" lon="10.151783931898713"><ele>161.5</ele><time>2026-04-07T16:04:58.006Z</time></trkpt><trkpt lat="45.58581948293142" lon="10.151763514515878"><ele>161.0</ele><time>2026-04-07T16:05:01.006Z</time></trkpt><trkpt lat="45.585741881597365" lon="10.151734293773288"><ele>161.0</ele><time>2026-04-07T16:05:04.006Z</time></trkpt><trkpt lat="45.58569110888473" lon="10.151672155157868"><ele>161.0</ele><time>2026-04-07T16:05:07.006Z</time></trkpt><trkpt lat="45.58562746007303" lon="10.151610698534201"><ele>161.0</ele><time>2026-04-07T16:05:10.006Z</time></trkpt><trkpt lat="45.58557653846092" lon="10.151528616963152"><ele>161.0</ele><time>2026-04-07T16:05:13.006Z</time></trkpt><trkpt lat="45.58551842580076" lon="10.151471618459682"><ele>161.0</ele><time>2026-04-07T16:05:16.006Z</time></trkpt><trkpt lat="45.58545513562097" lon="10.151432632956011"><ele>161.0</ele><time>2026-04-07T16:05:19.006Z</time></trkpt><trkpt lat="45.58537019340235" lon="10.151431101560748"><ele>161.0</ele><time>2026-04-07T16:05:22.006Z</time></trkpt><trkpt lat="45.585302988219496" lon="10.151460489124595"><ele>160.33333333333331</ele><time>2026-04-07T16:05:24.006Z</time></trkpt><trkpt lat="45.58521717769291" lon="10.151475384589178"><ele>159.66666666666666</ele><time>2026-04-07T16:05:27.006Z</time></trkpt><trkpt lat="45.585140462741116" lon="10.15144886137067"><ele>159.0</ele><time>2026-04-07T16:05:30.006Z</time></trkpt><trkpt lat="45.58508118695686" lon="10.151416761674348"><ele>158.33333333333334</ele><time>2026-04-07T16:05:33.006Z</time></trkpt><trkpt lat="45.58501545980635" lon="10.151420247107726"><ele>157.66666666666669</ele><time>2026-04-07T16:05:36.006Z</time></trkpt><trkpt lat="45.584943812848636" lon="10.15141683690186"><ele>157.0</ele><time>2026-04-07T16:05:39.006Z</time></trkpt><trkpt lat="45.58485848192353" lon="10.151434633106835"><ele>156.99999999999997</ele><time>2026-04-07T16:05:42.006Z</time></trkpt><trkpt lat="45.58478885490715" lon="10.151457905718626"><ele>157.0</ele><time>2026-04-07T16:05:45.006Z</time></trkpt><trkpt lat="45.58472656595741" lon="10.151486539945957"><ele>157.0</ele><time>2026-04-07T16:05:48.006Z</time></trkpt><trkpt lat="45.584657632434045" lon="10.151522694479672"><ele>157.0</ele><time>2026-04-07T16:05:51.006Z</time></trkpt><trkpt lat="45.584585372478436" lon="10.15155599936184"><ele>157.0</ele><time>2026-04-07T16:05:54.006Z</time></trkpt><trkpt lat="45.5845219558715" lon="10.15158722236236"><ele>156.99999999999997</ele><time>2026-04-07T16:05:57.006Z</time></trkpt><trkpt lat="45.58445883775668" lon="10.151606716824991"><ele>157.0</ele><time>2026-04-07T16:06:00.006Z</time></trkpt><trkpt lat="45.58438677141791" lon="10.151624495816193"><ele>156.85714285714283</ele><time>2026-04-07T16:06:03.006Z</time></trkpt><trkpt lat="45.58431513325597" lon="10.151676491404352"><ele>156.71428571428572</ele><time>2026-04-07T16:06:06.006Z</time></trkpt><trkpt lat="45.5842467703169" lon="10.15172603320654"><ele>156.57142857142856</ele><time>2026-04-07T16:06:09.006Z</time></trkpt><trkpt lat="45.58417999417052" lon="10.151729252337969"><ele>156.42857142857142</ele><time>2026-04-07T16:06:12.006Z</time></trkpt><trkpt lat="45.58412696321116" lon="10.151800373825207"><ele>156.28571428571428</ele><time>2026-04-07T16:06:15.006Z</time></trkpt><trkpt lat="45.58405515869278" lon="10.151836339795706"><ele>156.14285714285714</ele><time>2026-04-07T16:06:18.006Z</time></trkpt><trkpt lat="45.58398940007129" lon="10.151855218265075"><ele>156.0</ele><time>2026-04-07T16:06:20.006Z</time></trkpt><trkpt lat="45.583926118453284" lon="10.151863338939561"><ele>156.0</ele><time>2026-04-07T16:06:22.006Z</time></trkpt><trkpt lat="45.583844752202126" lon="10.151850098702171"><ele>156.0</ele><time>2026-04-07T16:06:25.006Z</time></trkpt><trkpt lat="45.583766973876955" lon="10.151837597111099"><ele>156.0</ele><time>2026-04-07T16:06:28.006Z</time></trkpt><trkpt lat="45.5836923368223" lon="10.15182504017555"><ele>156.0</ele><time>2026-04-07T16:06:31.006Z</time></trkpt><trkpt lat="45.583612384190445" lon="10.151813503071534"><ele>156.0</ele><time>2026-04-07T16:06:34.006Z</time></trkpt><trkpt lat="45.58353819266798" lon="10.151779356888555"><ele>156.0</ele><time>2026-04-07T16:06:37.006Z</time></trkpt><trkpt lat="45.58346523756569" lon="10.151741776336502"><ele>156.0</ele><time>2026-04-07T16:06:41.006Z</time></trkpt><trkpt lat="45.583378605951786" lon="10.151729560058822"><ele>156.0</ele><time>2026-04-07T16:06:44.006Z</time></trkpt><trkpt lat="45.583296083913915" lon="10.151723935442146"><ele>156.0</ele><time>2026-04-07T16:06:47.006Z</time></trkpt><trkpt lat="45.58322597538156" lon="10.151691311525619"><ele>156.0</ele><time>2026-04-07T16:06:50.006Z</time></trkpt><trkpt lat="45.58316701311263" lon="10.15162014512577"><ele>156.0</ele><time>2026-04-07T16:06:53.006Z</time></trkpt><trkpt lat="45.58309947569923" lon="10.151575406583664"><ele>156.0</ele><time>2026-04-07T16:06:56.006Z</time></trkpt><trkpt lat="45.58302870731386" lon="10.151532339309933"><ele>155.66666666666666</ele><time>2026-04-07T16:06:59.006Z</time></trkpt><trkpt lat="45.5829460929614" lon="10.151500852884004"><ele>155.33333333333334</ele><time>2026-04-07T16:07:02.006Z</time></trkpt><trkpt lat="45.58287126206112" lon="10.151453605554176"><ele>155.0</ele><time>2026-04-07T16:07:05.006Z</time></trkpt><trkpt lat="45.58280345291896" lon="10.151409286268144"><ele>154.66666666666669</ele><time>2026-04-07T16:07:08.006Z</time></trkpt><trkpt lat="45.582729007450986" lon="10.151367929911556"><ele>154.33333333333334</ele><time>2026-04-07T16:07:11.006Z</time></trkpt><trkpt lat="45.58266038647407" lon="10.15132608473925"><ele>154.0</ele><time>2026-04-07T16:07:14.006Z</time></trkpt><trkpt lat="45.58259496903753" lon="10.151270823223442"><ele>153.85714285714286</ele><time>2026-04-07T16:07:17.006Z</time></trkpt><trkpt lat="45.58253489515959" lon="10.151205236221042"><ele>153.71428571428572</ele><time>2026-04-07T16:07:20.006Z</time></trkpt><trkpt lat="45.582472710704266" lon="10.15114973163988"><ele>153.57142857142856</ele><time>2026-04-07T16:07:23.006Z</time></trkpt><trkpt lat="45.5824219812216" lon="10.151076806606453"><ele>153.42857142857144</ele><time>2026-04-07T16:07:26.006Z</time></trkpt><trkpt lat="45.582366728190465" lon="10.151013918984333"><ele>153.28571428571428</ele><time>2026-04-07T16:07:29.006Z</time></trkpt><trkpt lat="45.58231447783908" lon="10.150946557390599"><ele>153.14285714285714</ele><time>2026-04-07T16:07:32.006Z</time></trkpt><trkpt lat="45.58226209166013" lon="10.150889234766304"><ele>153.0</ele><time>2026-04-07T16:07:35.006Z</time></trkpt><trkpt lat="45.58221822534099" lon="10.150810221339778"><ele>153.0</ele><time>2026-04-07T16:07:38.006Z</time></trkpt><trkpt lat="45.58214638455152" lon="10.150728822823547"><ele>153.0</ele><time>2026-04-07T16:07:42.006Z</time></trkpt><trkpt lat="45.58209708533216" lon="10.150661035635437"><ele>153.0</ele><time>2026-04-07T16:07:45.006Z</time></trkpt><trkpt lat="45.582047751072665" lon="10.150581570707713"><ele>153.0</ele><time>2026-04-07T16:07:48.007Z</time></trkpt><trkpt lat="45.581998574427814" lon="10.15051525670486"><ele>153.0</ele><time>2026-04-07T16:07:51.007Z</time></trkpt><trkpt lat="45.581954612257476" lon="10.150433192181046"><ele>153.0</ele><time>2026-04-07T16:07:54.007Z</time></trkpt><trkpt lat="45.58190471639325" lon="10.150360452329931"><ele>153.0</ele><time>2026-04-07T16:07:57.007Z</time></trkpt><trkpt lat="45.58184882814876" lon="10.150293635350831"><ele>152.28571428571428</ele><time>2026-04-07T16:08:00.007Z</time></trkpt><trkpt lat="45.58183799210359" lon="10.150192886959589"><ele>151.57142857142858</ele><time>2026-04-07T16:08:03.007Z</time></trkpt><trkpt lat="45.5818417981419" lon="10.150099314390106"><ele>150.85714285714286</ele><time>2026-04-07T16:08:06.007Z</time></trkpt><trkpt lat="45.581830148902974" lon="10.14999606268431"><ele>150.14285714285714</ele><time>2026-04-07T16:08:09.007Z</time></trkpt><trkpt lat="45.58183570095052" lon="10.149890738662647"><ele>149.42857142857142</ele><time>2026-04-07T16:08:12.007Z</time></trkpt><trkpt lat="45.58183541113921" lon="10.14979449690858"><ele>148.71428571428572</ele><time>2026-04-07T16:08:15.007Z</time></trkpt><trkpt lat="45.581833488163966" lon="10.149689622231268"><ele>148.0</ele><time>2026-04-07T16:08:18.007Z</time></trkpt><trkpt lat="45.58182389487416" lon="10.149589554963606"><ele>147.85714285714286</ele><time>2026-04-07T16:08:21.007Z</time></trkpt><trkpt lat="45.581826137797336" lon="10.149482944071323"><ele>147.71428571428572</ele><time>2026-04-07T16:08:23.999Z</time></trkpt><trkpt lat="45.58182566222538" lon="10.149369678454528"><ele>147.57142857142856</ele><time>2026-04-07T16:08:26.999Z</time></trkpt><trkpt lat="45.58182697179339" lon="10.149256807460878"><ele>147.42857142857144</ele><time>2026-04-07T16:08:29.999Z</time></trkpt><trkpt lat="45.58182778345964" lon="10.149158214041773"><ele>147.28571428571428</ele><time>2026-04-07T16:08:32.999Z</time></trkpt><trkpt lat="45.58183575196528" lon="10.14906274865349"><ele>147.14285714285714</ele><time>2026-04-07T16:08:35.999Z</time></trkpt><trkpt lat="45.581824991622916" lon="10.14895647390165"><ele>147.0</ele><time>2026-04-07T16:08:38.999Z</time></trkpt><trkpt lat="45.58181388013867" lon="10.148853734121964"><ele>146.85714285714286</ele><time>2026-04-07T16:08:41.999Z</time></trkpt><trkpt lat="45.58181867103471" lon="10.148748288337321"><ele>146.71428571428572</ele><time>2026-04-07T16:08:44.999Z</time></trkpt><trkpt lat="45.58181808436581" lon="10.148644895513598"><ele>146.57142857142856</ele><time>2026-04-07T16:08:47.999Z</time></trkpt><trkpt lat="45.5818245720555" lon="10.148549181220043"><ele>146.42857142857144</ele><time>2026-04-07T16:08:50.999Z</time></trkpt><trkpt lat="45.58183444271397" lon="10.148440424564118"><ele>146.28571428571428</ele><time>2026-04-07T16:08:53.999Z</time></trkpt><trkpt lat="45.58183242587254" lon="10.148334481022818"><ele>146.14285714285714</ele><time>2026-04-07T16:08:56.999Z</time></trkpt><trkpt lat="45.581825659793935" lon="10.148235751479037"><ele>146.0</ele><time>2026-04-07T16:08:59.999Z</time></trkpt><trkpt lat="45.58182604580302" lon="10.148120582792632"><ele>146.0</ele><time>2026-04-07T16:09:02.999Z</time></trkpt><trkpt lat="45.58182352251534" lon="10.148013779824826"><ele>146.0</ele><time>2026-04-07T16:09:05.999Z</time></trkpt><trkpt lat="45.58183514421534" lon="10.147907441714633"><ele>146.0</ele><time>2026-04-07T16:09:08.998Z</time></trkpt><trkpt lat="45.58184459621594" lon="10.147806543786267"><ele>146.0</ele><time>2026-04-07T16:09:11.998Z</time></trkpt><trkpt lat="45.58184809525621" lon="10.147699371050122"><ele>146.0</ele><time>2026-04-07T16:09:14.999Z</time></trkpt><trkpt lat="45.58188745719235" lon="10.147587383491954"><ele>146.0</ele><time>2026-04-07T16:09:17.998Z</time></trkpt><trkpt lat="45.581905084945284" lon="10.147472942297288"><ele>146.0</ele><time>2026-04-07T16:09:20.998Z</time></trkpt><trkpt lat="45.5819624178586" lon="10.14738722171335"><ele>146.0</ele><time>2026-04-07T16:09:23.999Z</time></trkpt><trkpt lat="45.58207968303819" lon="10.147368296505222"><ele>146.0</ele><time>2026-04-07T16:09:28.999Z</time></trkpt><trkpt lat="45.58217823583286" lon="10.147359141690886"><ele>146.0</ele><time>2026-04-07T16:09:32.999Z</time></trkpt><trkpt lat="45.58231191401461" lon="10.147333147457257"><ele>146.0</ele><time>2026-04-07T16:09:38.999Z</time></trkpt><trkpt lat="45.58233000773796" lon="10.147213008488047"><ele>146.0</ele><time>2026-04-07T16:09:41.999Z</time></trkpt><trkpt lat="45.5823242157592" lon="10.147101410551905"><ele>146.0</ele><time>2026-04-07T16:09:44.999Z</time></trkpt><trkpt lat="45.58233713288912" lon="10.146992476739346"><ele>146.0</ele><time>2026-04-07T16:09:47.999Z</time></trkpt><trkpt lat="45.582341754624814" lon="10.146889136997714"><ele>146.0</ele><time>2026-04-07T16:09:50.999Z</time></trkpt><trkpt lat="45.58234007058254" lon="10.146792070112918"><ele>146.0</ele><time>2026-04-07T16:09:53.999Z</time></trkpt><trkpt lat="45.58233001720711" lon="10.146682759258908"><ele>146.0</ele><time>2026-04-07T16:09:56.999Z</time></trkpt><trkpt lat="45.582324260207784" lon="10.146572528565413"><ele>146.16666666666666</ele><time>2026-04-07T16:09:59.999Z</time></trkpt><trkpt lat="45.58231294344611" lon="10.14646720510171"><ele>146.33333333333331</ele><time>2026-04-07T16:10:02.999Z</time></trkpt><trkpt lat="45.5823070924288" lon="10.146355959597877"><ele>146.5</ele><time>2026-04-07T16:10:05.999Z</time></trkpt><trkpt lat="45.58231435233922" lon="10.146246816381638"><ele>146.66666666666666</ele><time>2026-04-07T16:10:08.999Z</time></trkpt><trkpt lat="45.58230070115181" lon="10.146135017647069"><ele>146.83333333333334</ele><time>2026-04-07T16:10:11.999Z</time></trkpt><trkpt lat="45.58229627607235" lon="10.146021521073806"><ele>147.0</ele><time>2026-04-07T16:10:14.999Z</time></trkpt><trkpt lat="45.58230703154119" lon="10.145907852645184"><ele>147.0</ele><time>2026-04-07T16:10:17.999Z</time></trkpt><trkpt lat="45.58229046528656" lon="10.145797931120825"><ele>147.0</ele><time>2026-04-07T16:10:20.999Z</time></trkpt><trkpt lat="45.58223691503646" lon="10.145703017198445"><ele>147.0</ele><time>2026-04-07T16:10:23.999Z</time></trkpt><trkpt lat="45.58217291499434" lon="10.145636372713879"><ele>147.0</ele><time>2026-04-07T16:10:26.999Z</time></trkpt><trkpt lat="45.58210714753273" lon="10.145573824194821"><ele>147.0</ele><time>2026-04-07T16:10:29.999Z</time></trkpt><trkpt lat="45.582041974777965" lon="10.145512134630133"><ele>147.0</ele><time>2026-04-07T16:10:32.999Z</time></trkpt><trkpt lat="45.58202403825213" lon="10.145404376958009"><ele>147.14285714285714</ele><time>2026-04-07T16:10:35.999Z</time></trkpt><trkpt lat="45.582062039217334" lon="10.145311102829375"><ele>147.28571428571428</ele><time>2026-04-07T16:10:38.999Z</time></trkpt><trkpt lat="45.58210077632323" lon="10.145205714737326"><ele>147.42857142857144</ele><time>2026-04-07T16:10:42.999Z</time></trkpt><trkpt lat="45.58209233023065" lon="10.145094384668884"><ele>147.57142857142856</ele><time>2026-04-07T16:10:45.999Z</time></trkpt><trkpt lat="45.58209684146313" lon="10.144997082667981"><ele>147.71428571428572</ele><time>2026-04-07T16:10:48.999Z</time></trkpt><trkpt lat="45.582091999110766" lon="10.144899093284806"><ele>147.85714285714286</ele><time>2026-04-07T16:10:51.999Z</time></trkpt><trkpt lat="45.58208347456791" lon="10.144799950511866"><ele>148.0</ele><time>2026-04-07T16:10:54.999Z</time></trkpt><trkpt lat="45.5820762147652" lon="10.14470424013584"><ele>147.57142857142858</ele><time>2026-04-07T16:10:57.999Z</time></trkpt><trkpt lat="45.58207222713372" lon="10.14460162197176"><ele>147.14285714285714</ele><time>2026-04-07T16:11:00.999Z</time></trkpt><trkpt lat="45.582064759999746" lon="10.144498176217205"><ele>146.71428571428572</ele><time>2026-04-07T16:11:03.999Z</time></trkpt><trkpt lat="45.582061790065346" lon="10.144389430694854"><ele>146.28571428571428</ele><time>2026-04-07T16:11:06.999Z</time></trkpt><trkpt lat="45.58205399388319" lon="10.144286563358634"><ele>145.85714285714286</ele><time>2026-04-07T16:11:09.999Z</time></trkpt><trkpt lat="45.582053183656164" lon="10.144188986969551"><ele>145.42857142857144</ele><time>2026-04-07T16:11:12.999Z</time></trkpt><trkpt lat="45.58206093801074" lon="10.144069467963824"><ele>145.0</ele><time>2026-04-07T16:11:16.999Z</time></trkpt><trkpt lat="45.58205541663053" lon="10.14395005677673"><ele>144.83333333333334</ele><time>2026-04-07T16:11:19.998Z</time></trkpt><trkpt lat="45.58206341491144" lon="10.143839255482124"><ele>144.66666666666669</ele><time>2026-04-07T16:11:22.998Z</time></trkpt><trkpt lat="45.582066451709764" lon="10.143718754710074"><ele>144.5</ele><time>2026-04-07T16:11:25.998Z</time></trkpt><trkpt lat="45.58207684895259" lon="10.143595360229876"><ele>144.33333333333334</ele><time>2026-04-07T16:11:28.998Z</time></trkpt><trkpt lat="45.5820916534184" lon="10.143477730726751"><ele>144.16666666666666</ele><time>2026-04-07T16:11:31.998Z</time></trkpt><trkpt lat="45.582095247583034" lon="10.143361992751101"><ele>144.0</ele><time>2026-04-07T16:11:34.998Z</time></trkpt><trkpt lat="45.58210575500397" lon="10.143249112433793"><ele>144.33333333333334</ele><time>2026-04-07T16:11:37.998Z</time></trkpt><trkpt lat="45.58211541180963" lon="10.143140370050828"><ele>144.66666666666666</ele><time>2026-04-07T16:11:40.998Z</time></trkpt><trkpt lat="45.58212815241979" lon="10.143040224704812"><ele>145.0</ele><time>2026-04-07T16:11:43.998Z</time></trkpt><trkpt lat="45.58214343331177" lon="10.142936056039694"><ele>145.33333333333331</ele><time>2026-04-07T16:11:46.998Z</time></trkpt><trkpt lat="45.58215287914034" lon="10.142829300773418"><ele>145.66666666666666</ele><time>2026-04-07T16:11:49.998Z</time></trkpt><trkpt lat="45.58216114956458" lon="10.142723229495871"><ele>146.0</ele><time>2026-04-07T16:11:52.998Z</time></trkpt><trkpt lat="45.58216928738885" lon="10.142613241331997"><ele>146.0</ele><time>2026-04-07T16:11:55.998Z</time></trkpt><trkpt lat="45.582183751726696" lon="10.142518990034"><ele>146.0</ele><time>2026-04-07T16:11:58.999Z</time></trkpt><trkpt lat="45.58218846391154" lon="10.142418394579815"><ele>146.0</ele><time>2026-04-07T16:12:01.999Z</time></trkpt><trkpt lat="45.58219562563756" lon="10.142306574579203"><ele>146.0</ele><time>2026-04-07T16:12:04.999Z</time></trkpt><trkpt lat="45.58221386192609" lon="10.142199099600324"><ele>146.0</ele><time>2026-04-07T16:12:07.999Z</time></trkpt><trkpt lat="45.58221819372604" lon="10.142084407487168"><ele>146.0</ele><time>2026-04-07T16:12:10.999Z</time></trkpt><trkpt lat="45.58221874092452" lon="10.141964844115206"><ele>146.16666666666666</ele><time>2026-04-07T16:12:13.999Z</time></trkpt><trkpt lat="45.582221286397086" lon="10.141852267454086"><ele>146.33333333333331</ele><time>2026-04-07T16:12:16.999Z</time></trkpt><trkpt lat="45.58221579476439" lon="10.14173844690296"><ele>146.5</ele><time>2026-04-07T16:12:19.999Z</time></trkpt><trkpt lat="45.58221569920672" lon="10.14162928010692"><ele>146.66666666666666</ele><time>2026-04-07T16:12:22.999Z</time></trkpt><trkpt lat="45.58221431747611" lon="10.141524158745103"><ele>146.83333333333334</ele><time>2026-04-07T16:12:25.999Z</time></trkpt><trkpt lat="45.582211984410016" lon="10.141413166404757"><ele>147.0</ele><time>2026-04-07T16:12:28.999Z</time></trkpt><trkpt lat="45.582213965081635" lon="10.141311527889343"><ele>147.0</ele><time>2026-04-07T16:12:31.999Z</time></trkpt><trkpt lat="45.58222173234568" lon="10.14120967537594"><ele>147.0</ele><time>2026-04-07T16:12:34.999Z</time></trkpt><trkpt lat="45.58221793111686" lon="10.141096543639643"><ele>147.0</ele><time>2026-04-07T16:12:37.999Z</time></trkpt><trkpt lat="45.58222447386841" lon="10.140987923524877"><ele>147.0</ele><time>2026-04-07T16:12:40.999Z</time></trkpt><trkpt lat="45.58223996045221" lon="10.14087216900615"><ele>147.0</ele><time>2026-04-07T16:12:43.999Z</time></trkpt><trkpt lat="45.582259820596285" lon="10.140761252148721"><ele>147.0</ele><time>2026-04-07T16:12:46.999Z</time></trkpt><trkpt lat="45.58227727927959" lon="10.140658645926047"><ele>147.0</ele><time>2026-04-07T16:12:49.999Z</time></trkpt><trkpt lat="45.58228859282021" lon="10.140549211560463"><ele>147.0</ele><time>2026-04-07T16:12:52.999Z</time></trkpt><trkpt lat="45.58230079087513" lon="10.140435845012053"><ele>147.0</ele><time>2026-04-07T16:12:55.999Z</time></trkpt><trkpt lat="45.58232163994524" lon="10.140326649660691"><ele>147.0</ele><time>2026-04-07T16:12:58.999Z</time></trkpt><trkpt lat="45.582339450583234" lon="10.140227175669562"><ele>147.0</ele><time>2026-04-07T16:13:01.999Z</time></trkpt><trkpt lat="45.58236449431472" lon="10.140128890954495"><ele>147.0</ele><time>2026-04-07T16:13:04.999Z</time></trkpt><trkpt lat="45.58238844666139" lon="10.140022450894762"><ele>147.0</ele><time>2026-04-07T16:13:07.999Z</time></trkpt><trkpt lat="45.582410608759034" lon="10.139918350090184"><ele>147.0</ele><time>2026-04-07T16:13:10.999Z</time></trkpt><trkpt lat="45.58242499812516" lon="10.139817887116454"><ele>147.0</ele><time>2026-04-07T16:13:13.999Z</time></trkpt><trkpt lat="45.58244480018446" lon="10.139712263551315"><ele>147.0</ele><time>2026-04-07T16:13:16.999Z</time></trkpt><trkpt lat="45.5824604339442" lon="10.139610986235388"><ele>147.0</ele><time>2026-04-07T16:13:19.999Z</time></trkpt><trkpt lat="45.58247500918545" lon="10.13950938006917"><ele>147.0</ele><time>2026-04-07T16:13:22.998Z</time></trkpt><trkpt lat="45.58250089724939" lon="10.139424546262665"><ele>147.0</ele><time>2026-04-07T16:13:25.998Z</time></trkpt><trkpt lat="45.5825198447159" lon="10.139331979649883"><ele>147.0</ele><time>2026-04-07T16:13:28.998Z</time></trkpt><trkpt lat="45.5825365276113" lon="10.139240212824808"><ele>147.0</ele><time>2026-04-07T16:13:31.998Z</time></trkpt><trkpt lat="45.582570298144624" lon="10.139150133554708"><ele>147.0</ele><time>2026-04-07T16:13:34.998Z</time></trkpt><trkpt lat="45.58260001140532" lon="10.139065568209885"><ele>147.0</ele><time>2026-04-07T16:13:37.998Z</time></trkpt><trkpt lat="45.582620064783605" lon="10.138964469916653"><ele>147.0</ele><time>2026-04-07T16:13:40.998Z</time></trkpt><trkpt lat="45.58265395264434" lon="10.138880584825158"><ele>147.0</ele><time>2026-04-07T16:13:43.998Z</time></trkpt><trkpt lat="45.58269302716697" lon="10.138797486413841"><ele>147.0</ele><time>2026-04-07T16:13:46.998Z</time></trkpt><trkpt lat="45.582738745853135" lon="10.13871645442003"><ele>147.0</ele><time>2026-04-07T16:13:50.998Z</time></trkpt><trkpt lat="45.582770111373875" lon="10.138619314654115"><ele>147.0</ele><time>2026-04-07T16:13:53.998Z</time></trkpt><trkpt lat="45.58280894178175" lon="10.13853097172569"><ele>147.0</ele><time>2026-04-07T16:13:56.998Z</time></trkpt><trkpt lat="45.5828565781245" lon="10.13843518828424"><ele>147.0</ele><time>2026-04-07T16:13:59.998Z</time></trkpt><trkpt lat="45.58290081274323" lon="10.138346253590761"><ele>147.0</ele><time>2026-04-07T16:14:02.998Z</time></trkpt><trkpt lat="45.582942887610464" lon="10.138244720164856"><ele>147.0</ele><time>2026-04-07T16:14:05.998Z</time></trkpt><trkpt lat="45.58298541768945" lon="10.138146954058168"><ele>147.14285714285714</ele><time>2026-04-07T16:14:08.998Z</time></trkpt><trkpt lat="45.58302265657439" lon="10.138049281262859"><ele>147.28571428571428</ele><time>2026-04-07T16:14:11.998Z</time></trkpt><trkpt lat="45.58305000565283" lon="10.137957074768174"><ele>147.42857142857144</ele><time>2026-04-07T16:14:13.998Z</time></trkpt><trkpt lat="45.58307707620968" lon="10.137846733170418"><ele>147.57142857142856</ele><time>2026-04-07T16:14:16.998Z</time></trkpt><trkpt lat="45.583109585074745" lon="10.137758577917607"><ele>147.71428571428572</ele><time>2026-04-07T16:14:19.998Z</time></trkpt><trkpt lat="45.58314891102343" lon="10.13767595759375"><ele>147.85714285714286</ele><time>2026-04-07T16:14:22.998Z</time></trkpt><trkpt lat="45.5831817434444" lon="10.137583904731413"><ele>148.0</ele><time>2026-04-07T16:14:25.998Z</time></trkpt><trkpt lat="45.58321421344966" lon="10.137501155083775"><ele>148.0</ele><time>2026-04-07T16:14:28.998Z</time></trkpt><trkpt lat="45.58324862966197" lon="10.13741983155131"><ele>148.0</ele><time>2026-04-07T16:14:31.998Z</time></trkpt><trkpt lat="45.58327185185281" lon="10.137320949469997"><ele>148.0</ele><time>2026-04-07T16:14:34.998Z</time></trkpt><trkpt lat="45.58328518573696" lon="10.137219436614703"><ele>148.0</ele><time>2026-04-07T16:14:37.998Z</time></trkpt><trkpt lat="45.58331675841129" lon="10.137126455350083"><ele>148.0</ele><time>2026-04-07T16:14:40.998Z</time></trkpt><trkpt lat="45.58333419071917" lon="10.13702398182492"><ele>148.0</ele><time>2026-04-07T16:14:43.998Z</time></trkpt><trkpt lat="45.583351398018344" lon="10.136913013138068"><ele>148.0</ele><time>2026-04-07T16:14:46.998Z</time></trkpt><trkpt lat="45.58337194128138" lon="10.136795558824218"><ele>148.0</ele><time>2026-04-07T16:14:49.998Z</time></trkpt><trkpt lat="45.583368327681114" lon="10.136686668236617"><ele>148.0</ele><time>2026-04-07T16:14:52.998Z</time></trkpt><trkpt lat="45.58339668129044" lon="10.136576295032514"><ele>148.0</ele><time>2026-04-07T16:14:55.998Z</time></trkpt><trkpt lat="45.58341361991599" lon="10.13646811583073"><ele>148.0</ele><time>2026-04-07T16:14:58.998Z</time></trkpt><trkpt lat="45.58342587590043" lon="10.136353798860206"><ele>148.0</ele><time>2026-04-07T16:15:01.998Z</time></trkpt><trkpt lat="45.58343824670253" lon="10.13624695941868"><ele>148.0</ele><time>2026-04-07T16:15:04.998Z</time></trkpt><trkpt lat="45.58345996493186" lon="10.13614483715899"><ele>148.14285714285714</ele><time>2026-04-07T16:15:07.998Z</time></trkpt><trkpt lat="45.583470762103644" lon="10.136038724473016"><ele>148.28571428571428</ele><time>2026-04-07T16:15:10.998Z</time></trkpt><trkpt lat="45.583473793563876" lon="10.13593377903284"><ele>148.42857142857142</ele><time>2026-04-07T16:15:13.998Z</time></trkpt><trkpt lat="45.583500633905516" lon="10.135840361724279"><ele>148.57142857142856</ele><time>2026-04-07T16:15:16.998Z</time></trkpt><trkpt lat="45.5835260188987" lon="10.135737574666145"><ele>148.7142857142857</ele><time>2026-04-07T16:15:19.998Z</time></trkpt><trkpt lat="45.583550200106295" lon="10.135637232037476"><ele>148.85714285714286</ele><time>2026-04-07T16:15:22.998Z</time></trkpt><trkpt lat="45.583580202250545" lon="10.13553601072443"><ele>149.0</ele><time>2026-04-07T16:15:25.998Z</time></trkpt><trkpt lat="45.583604173247124" lon="10.135437709957563"><ele>149.16666666666666</ele><time>2026-04-07T16:15:28.998Z</time></trkpt><trkpt lat="45.58363328065025" lon="10.13534074575381"><ele>149.33333333333331</ele><time>2026-04-07T16:15:31.998Z</time></trkpt><trkpt lat="45.583656871298544" lon="10.135238814165994"><ele>149.5</ele><time>2026-04-07T16:15:34.998Z</time></trkpt><trkpt lat="45.58368819894381" lon="10.135139371653862"><ele>149.66666666666666</ele><time>2026-04-07T16:15:37.998Z</time></trkpt><trkpt lat="45.58371288164083" lon="10.13503215133169"><ele>149.83333333333334</ele><time>2026-04-07T16:15:40.998Z</time></trkpt><trkpt lat="45.583726521103436" lon="10.134922292491336"><ele>150.0</ele><time>2026-04-07T16:15:43.998Z</time></trkpt><trkpt lat="45.58374577612896" lon="10.134815992743167"><ele>150.0</ele><time>2026-04-07T16:15:46.998Z</time></trkpt><trkpt lat="45.58376475644714" lon="10.134706991219758"><ele>150.0</ele><time>2026-04-07T16:15:49.998Z</time></trkpt><trkpt lat="45.58378006838279" lon="10.134591699162234"><ele>150.0</ele><time>2026-04-07T16:15:52.998Z</time></trkpt><trkpt lat="45.58378781038175" lon="10.13448397606103"><ele>150.0</ele><time>2026-04-07T16:15:55.998Z</time></trkpt><trkpt lat="45.583800400428494" lon="10.134374464284138"><ele>150.0</ele><time>2026-04-07T16:15:58.998Z</time></trkpt><trkpt lat="45.58381449338897" lon="10.134265963639068"><ele>150.0</ele><time>2026-04-07T16:16:01.998Z</time></trkpt><trkpt lat="45.58382649833037" lon="10.134157217610205"><ele>150.28571428571428</ele><time>2026-04-07T16:16:04.998Z</time></trkpt><trkpt lat="45.58384307203251" lon="10.13405213571577"><ele>150.57142857142856</ele><time>2026-04-07T16:16:07.998Z</time></trkpt><trkpt lat="45.58385650068262" lon="10.133955512843956"><ele>150.85714285714283</ele><time>2026-04-07T16:16:10.998Z</time></trkpt><trkpt lat="45.58385835623504" lon="10.133848853658291"><ele>151.14285714285714</ele><time>2026-04-07T16:16:13.998Z</time></trkpt><trkpt lat="45.58388372816048" lon="10.13374383384648"><ele>151.42857142857144</ele><time>2026-04-07T16:16:16.998Z</time></trkpt><trkpt lat="45.583897731118526" lon="10.13365165128213"><ele>151.7142857142857</ele><time>2026-04-07T16:16:19.998Z</time></trkpt><trkpt lat="45.58390645255136" lon="10.13354436904459"><ele>152.0</ele><time>2026-04-07T16:16:22.998Z</time></trkpt><trkpt lat="45.58393352537991" lon="10.133443422148801"><ele>152.0</ele><time>2026-04-07T16:16:25.998Z</time></trkpt><trkpt lat="45.583947340677696" lon="10.13333731691025"><ele>152.0</ele><time>2026-04-07T16:16:28.998Z</time></trkpt><trkpt lat="45.583982247889054" lon="10.133239212608974"><ele>152.0</ele><time>2026-04-07T16:16:31.998Z</time></trkpt><trkpt lat="45.58401421839869" lon="10.133144068982096"><ele>152.0</ele><time>2026-04-07T16:16:34.998Z</time></trkpt><trkpt lat="45.584052858773184" lon="10.133052885273866"><ele>152.0</ele><time>2026-04-07T16:16:37.998Z</time></trkpt><trkpt lat="45.58410051953567" lon="10.132977360065357"><ele>152.0</ele><time>2026-04-07T16:16:40.998Z</time></trkpt><trkpt lat="45.5841489625623" lon="10.132888788242962"><ele>152.16666666666666</ele><time>2026-04-07T16:16:43.998Z</time></trkpt><trkpt lat="45.5841977563134" lon="10.132806825494841"><ele>152.33333333333331</ele><time>2026-04-07T16:16:46.998Z</time></trkpt><trkpt lat="45.58424951247474" lon="10.132725100933222"><ele>152.5</ele><time>2026-04-07T16:16:49.998Z</time></trkpt><trkpt lat="45.58429384500979" lon="10.132639403451417"><ele>152.66666666666666</ele><time>2026-04-07T16:16:52.998Z</time></trkpt><trkpt lat="45.58434608968583" lon="10.13256485382312"><ele>152.83333333333334</ele><time>2026-04-07T16:16:55.998Z</time></trkpt><trkpt lat="45.58439428273593" lon="10.132479025656242"><ele>153.0</ele><time>2026-04-07T16:16:58.998Z</time></trkpt><trkpt lat="45.58443892128663" lon="10.13239385164759"><ele>152.85714285714286</ele><time>2026-04-07T16:17:01.999Z</time></trkpt><trkpt lat="45.58449140252981" lon="10.132312936229146"><ele>152.71428571428572</ele><time>2026-04-07T16:17:04.999Z</time></trkpt><trkpt lat="45.584548243767614" lon="10.132233949711438"><ele>152.57142857142856</ele><time>2026-04-07T16:17:07.999Z</time></trkpt><trkpt lat="45.58459453610848" lon="10.132148220557426"><ele>152.42857142857144</ele><time>2026-04-07T16:17:10.999Z</time></trkpt><trkpt lat="45.584649816627156" lon="10.13207633580931"><ele>152.2857142857143</ele><time>2026-04-07T16:17:13.999Z</time></trkpt><trkpt lat="45.58470270388156" lon="10.1320075394279"><ele>152.14285714285714</ele><time>2026-04-07T16:17:16.999Z</time></trkpt><trkpt lat="45.58474655390517" lon="10.131934457282888"><ele>152.0</ele><time>2026-04-07T16:17:19.999Z</time></trkpt><trkpt lat="45.5847953017641" lon="10.131856908034043"><ele>152.14285714285714</ele><time>2026-04-07T16:17:22.999Z</time></trkpt><trkpt lat="45.58484752983692" lon="10.13179011856033"><ele>152.2857142857143</ele><time>2026-04-07T16:17:25.999Z</time></trkpt><trkpt lat="45.58489866684314" lon="10.131711327853289"><ele>152.42857142857144</ele><time>2026-04-07T16:17:28.999Z</time></trkpt><trkpt lat="45.58495250211092" lon="10.131636066690799"><ele>152.57142857142856</ele><time>2026-04-07T16:17:31.999Z</time></trkpt><trkpt lat="45.584998137930164" lon="10.131564264230736"><ele>152.71428571428572</ele><time>2026-04-07T16:17:34.998Z</time></trkpt><trkpt lat="45.58505026405177" lon="10.13149406019841"><ele>152.85714285714286</ele><time>2026-04-07T16:17:37.998Z</time></trkpt><trkpt lat="45.58509587574626" lon="10.13142873269586"><ele>153.0</ele><time>2026-04-07T16:17:40.997Z</time></trkpt><trkpt lat="45.58514816740567" lon="10.131356632088702"><ele>153.0</ele><time>2026-04-07T16:17:43.997Z</time></trkpt><trkpt lat="45.58520365159916" lon="10.131290088181801"><ele>153.0</ele><time>2026-04-07T16:17:46.998Z</time></trkpt><trkpt lat="45.58524952257211" lon="10.131211764525895"><ele>153.0</ele><time>2026-04-07T16:17:49.998Z</time></trkpt><trkpt lat="45.58529745809575" lon="10.131140680047679"><ele>153.0</ele><time>2026-04-07T16:17:52.998Z</time></trkpt><trkpt lat="45.585350873076685" lon="10.131069329597073"><ele>153.0</ele><time>2026-04-07T16:17:55.998Z</time></trkpt><trkpt lat="45.58541000094604" lon="10.13098141902395"><ele>153.0</ele><time>2026-04-07T16:17:59.998Z</time></trkpt><trkpt lat="45.58545854272998" lon="10.130917929003962"><ele>153.0</ele><time>2026-04-07T16:18:02.998Z</time></trkpt><trkpt lat="45.58550535993856" lon="10.130837156822613"><ele>153.16666666666666</ele><time>2026-04-07T16:18:05.998Z</time></trkpt><trkpt lat="45.585548914034206" lon="10.130762045019985"><ele>153.33333333333334</ele><time>2026-04-07T16:18:08.998Z</time></trkpt><trkpt lat="45.58559967450902" lon="10.130687055307668"><ele>153.5</ele><time>2026-04-07T16:18:11.998Z</time></trkpt><trkpt lat="45.5856598132744" lon="10.130599933060049"><ele>153.66666666666669</ele><time>2026-04-07T16:18:14.998Z</time></trkpt><trkpt lat="45.585704192555035" lon="10.130505280860843"><ele>153.83333333333334</ele><time>2026-04-07T16:18:17.998Z</time></trkpt><trkpt lat="45.58575415639946" lon="10.130422619875082"><ele>154.0</ele><time>2026-04-07T16:18:20.998Z</time></trkpt><trkpt lat="45.58579067191405" lon="10.130330854573451"><ele>154.16666666666669</ele><time>2026-04-07T16:18:23.998Z</time></trkpt><trkpt lat="45.58582520252747" lon="10.130234248314741"><ele>154.33333333333334</ele><time>2026-04-07T16:18:26.998Z</time></trkpt><trkpt lat="45.58586527731335" lon="10.130148333869258"><ele>154.5</ele><time>2026-04-07T16:18:29.998Z</time></trkpt><trkpt lat="45.585902532187475" lon="10.13004956620221"><ele>154.66666666666666</ele><time>2026-04-07T16:18:32.998Z</time></trkpt><trkpt lat="45.58594037690086" lon="10.12995465914731"><ele>154.83333333333331</ele><time>2026-04-07T16:18:35.998Z</time></trkpt><trkpt lat="45.58598256691217" lon="10.129855243761284"><ele>155.0</ele><time>2026-04-07T16:18:38.998Z</time></trkpt><trkpt lat="45.586010207947986" lon="10.1297480492477"><ele>155.0</ele><time>2026-04-07T16:18:41.998Z</time></trkpt><trkpt lat="45.5860597570418" lon="10.129662444921948"><ele>155.0</ele><time>2026-04-07T16:18:44.998Z</time></trkpt><trkpt lat="45.586092769467584" lon="10.129569155355897"><ele>155.0</ele><time>2026-04-07T16:18:47.998Z</time></trkpt><trkpt lat="45.586143596195946" lon="10.129490633174324"><ele>155.0</ele><time>2026-04-07T16:18:50.998Z</time></trkpt><trkpt lat="45.586186809121635" lon="10.129393445915344"><ele>155.0</ele><time>2026-04-07T16:18:53.998Z</time></trkpt><trkpt lat="45.5862230916695" lon="10.129299252432656"><ele>155.0</ele><time>2026-04-07T16:18:56.998Z</time></trkpt><trkpt lat="45.58627251318464" lon="10.129215303784099"><ele>155.0</ele><time>2026-04-07T16:18:59.998Z</time></trkpt><trkpt lat="45.586315353103984" lon="10.129124757083025"><ele>155.0</ele><time>2026-04-07T16:19:02.998Z</time></trkpt><trkpt lat="45.58636251981885" lon="10.129033788800571"><ele>155.0</ele><time>2026-04-07T16:19:05.998Z</time></trkpt><trkpt lat="45.58640805542264" lon="10.128950269022765"><ele>155.0</ele><time>2026-04-07T16:19:08.999Z</time></trkpt><trkpt lat="45.586452154979334" lon="10.12886409090465"><ele>155.0</ele><time>2026-04-07T16:19:11.999Z</time></trkpt><trkpt lat="45.58649682361148" lon="10.12877555919927"><ele>155.0</ele><time>2026-04-07T16:19:14.999Z</time></trkpt><trkpt lat="45.5865501020403" lon="10.128692792176226"><ele>155.0</ele><time>2026-04-07T16:19:17.999Z</time></trkpt><trkpt lat="45.58659860026644" lon="10.128611651847944"><ele>155.0</ele><time>2026-04-07T16:19:20.999Z</time></trkpt><trkpt lat="45.58665643706584" lon="10.128537852030071"><ele>155.0</ele><time>2026-04-07T16:19:23.999Z</time></trkpt><trkpt lat="45.58671432021237" lon="10.128463537853552"><ele>155.0</ele><time>2026-04-07T16:19:26.999Z</time></trkpt><trkpt lat="45.586767681035816" lon="10.12840039268975"><ele>155.0</ele><time>2026-04-07T16:19:29.999Z</time></trkpt><trkpt lat="45.58682501475469" lon="10.12832370770519"><ele>155.0</ele><time>2026-04-07T16:19:32.999Z</time></trkpt><trkpt lat="45.586877127371764" lon="10.128244216416208"><ele>155.0</ele><time>2026-04-07T16:19:35.999Z</time></trkpt><trkpt lat="45.58692833344816" lon="10.12816716059901"><ele>155.0</ele><time>2026-04-07T16:19:38.997Z</time></trkpt><trkpt lat="45.58697680827166" lon="10.12808796079384"><ele>155.0</ele><time>2026-04-07T16:19:41.997Z</time></trkpt><trkpt lat="45.587027712390594" lon="10.12801860816349"><ele>155.0</ele><time>2026-04-07T16:19:44.998Z</time></trkpt><trkpt lat="45.587070376575475" lon="10.127929669916638"><ele>155.0</ele><time>2026-04-07T16:19:47.998Z</time></trkpt><trkpt lat="45.58711237670597" lon="10.127843473147186"><ele>155.0</ele><time>2026-04-07T16:19:50.997Z</time></trkpt><trkpt lat="45.587150598478786" lon="10.127756982547139"><ele>155.0</ele><time>2026-04-07T16:19:53.997Z</time></trkpt><trkpt lat="45.58719454392391" lon="10.127673631018377"><ele>155.14285714285714</ele><time>2026-04-07T16:19:56.997Z</time></trkpt><trkpt lat="45.58723208492777" lon="10.127587263062455"><ele>155.28571428571428</ele><time>2026-04-07T16:19:59.998Z</time></trkpt><trkpt lat="45.58725686652542" lon="10.127489771083878"><ele>155.42857142857144</ele><time>2026-04-07T16:20:02.998Z</time></trkpt><trkpt lat="45.58728981548906" lon="10.127396738653065"><ele>155.57142857142856</ele><time>2026-04-07T16:20:05.998Z</time></trkpt><trkpt lat="45.587317308510556" lon="10.127298094019919"><ele>155.7142857142857</ele><time>2026-04-07T16:20:08.998Z</time></trkpt><trkpt lat="45.587340175090176" lon="10.127197744699867"><ele>155.85714285714286</ele><time>2026-04-07T16:20:11.998Z</time></trkpt><trkpt lat="45.58735186083397" lon="10.127086982025865"><ele>156.0</ele><time>2026-04-07T16:20:14.998Z</time></trkpt><trkpt lat="45.58736343033293" lon="10.12697523310333"><ele>155.85714285714286</ele><time>2026-04-07T16:20:17.998Z</time></trkpt><trkpt lat="45.587369821557274" lon="10.126869150017187"><ele>155.7142857142857</ele><time>2026-04-07T16:20:20.998Z</time></trkpt><trkpt lat="45.587373819926945" lon="10.126765726404019"><ele>155.57142857142856</ele><time>2026-04-07T16:20:23.998Z</time></trkpt><trkpt lat="45.587382086362155" lon="10.126658648707041"><ele>155.42857142857144</ele><time>2026-04-07T16:20:26.998Z</time></trkpt><trkpt lat="45.58738182457083" lon="10.126553850901447"><ele>155.28571428571428</ele><time>2026-04-07T16:20:29.998Z</time></trkpt><trkpt lat="45.58737440898322" lon="10.126451614735553"><ele>155.14285714285714</ele><time>2026-04-07T16:20:32.998Z</time></trkpt><trkpt lat="45.587373873165525" lon="10.126346573060832"><ele>155.0</ele><time>2026-04-07T16:20:35.998Z</time></trkpt><trkpt lat="45.58738270497001" lon="10.126243019601803"><ele>155.0</ele><time>2026-04-07T16:20:38.998Z</time></trkpt><trkpt lat="45.587372836370335" lon="10.126140944325892"><ele>155.0</ele><time>2026-04-07T16:20:41.998Z</time></trkpt><trkpt lat="45.587376670428355" lon="10.126032657756399"><ele>155.0</ele><time>2026-04-07T16:20:44.998Z</time></trkpt><trkpt lat="45.58737123490022" lon="10.125930959791255"><ele>155.0</ele><time>2026-04-07T16:20:47.998Z</time></trkpt><trkpt lat="45.587369258295524" lon="10.125827502343334"><ele>155.0</ele><time>2026-04-07T16:20:50.998Z</time></trkpt><trkpt lat="45.58737399955652" lon="10.12572305578569"><ele>155.0</ele><time>2026-04-07T16:20:53.997Z</time></trkpt><trkpt lat="45.58737083933686" lon="10.125619738380358"><ele>155.0</ele><time>2026-04-07T16:20:56.996Z</time></trkpt><trkpt lat="45.587374527689654" lon="10.125516650481922"><ele>155.14285714285714</ele><time>2026-04-07T16:20:59.995Z</time></trkpt><trkpt lat="45.58737606931255" lon="10.125412409039841"><ele>155.28571428571428</ele><time>2026-04-07T16:21:02.995Z</time></trkpt><trkpt lat="45.587373561580634" lon="10.125308558069218"><ele>155.42857142857144</ele><time>2026-04-07T16:21:05.995Z</time></trkpt><trkpt lat="45.58737425469951" lon="10.125213995884666"><ele>155.57142857142856</ele><time>2026-04-07T16:21:08.994Z</time></trkpt><trkpt lat="45.58737000091599" lon="10.125108903564783"><ele>155.7142857142857</ele><time>2026-04-07T16:21:11.994Z</time></trkpt><trkpt lat="45.587378350929065" lon="10.125006148819573"><ele>155.85714285714286</ele><time>2026-04-07T16:21:14.994Z</time></trkpt><trkpt lat="45.58737881826005" lon="10.124907427173865"><ele>156.0</ele><time>2026-04-07T16:21:17.994Z</time></trkpt><trkpt lat="45.58738114298379" lon="10.12481271888281"><ele>155.71428571428572</ele><time>2026-04-07T16:21:20.993Z</time></trkpt><trkpt lat="45.58739888866775" lon="10.124716638891774"><ele>155.42857142857142</ele><time>2026-04-07T16:21:23.993Z</time></trkpt><trkpt lat="45.5874003957362" lon="10.12461456398293"><ele>155.14285714285714</ele><time>2026-04-07T16:21:26.993Z</time></trkpt><trkpt lat="45.58741137179178" lon="10.1245073473027"><ele>154.85714285714286</ele><time>2026-04-07T16:21:29.993Z</time></trkpt><trkpt lat="45.58741946118699" lon="10.124410521550333"><ele>154.57142857142856</ele><time>2026-04-07T16:21:32.993Z</time></trkpt><trkpt lat="45.58743329051219" lon="10.124302181021617"><ele>154.28571428571428</ele><time>2026-04-07T16:21:35.993Z</time></trkpt><trkpt lat="45.587444879143334" lon="10.124198177614183"><ele>154.0</ele><time>2026-04-07T16:21:38.993Z</time></trkpt><trkpt lat="45.58746320230071" lon="10.124105244635286"><ele>154.42857142857142</ele><time>2026-04-07T16:21:41.993Z</time></trkpt><trkpt lat="45.58748297058216" lon="10.124002693319335"><ele>154.85714285714286</ele><time>2026-04-07T16:21:44.992Z</time></trkpt><trkpt lat="45.587526517703765" lon="10.123923890542024"><ele>155.28571428571428</ele><time>2026-04-07T16:21:47.992Z</time></trkpt><trkpt lat="45.58756983001121" lon="10.123847443604472"><ele>155.71428571428572</ele><time>2026-04-07T16:21:50.992Z</time></trkpt><trkpt lat="45.5876252279891" lon="10.123781234938695"><ele>156.14285714285714</ele><time>2026-04-07T16:21:53.991Z</time></trkpt><trkpt lat="45.587682389119806" lon="10.123725966997462"><ele>156.57142857142856</ele><time>2026-04-07T16:21:56.992Z</time></trkpt><trkpt lat="45.58773962622847" lon="10.123659999004193"><ele>157.0</ele><time>2026-04-07T16:21:59.992Z</time></trkpt><trkpt lat="45.587784069572805" lon="10.12358341162721"><ele>157.0</ele><time>2026-04-07T16:22:02.992Z</time></trkpt><trkpt lat="45.587825039059354" lon="10.123501831757094"><ele>157.0</ele><time>2026-04-07T16:22:05.992Z</time></trkpt><trkpt lat="45.587865030511644" lon="10.123397306902847"><ele>157.0</ele><time>2026-04-07T16:22:09.992Z</time></trkpt><trkpt lat="45.58787453138228" lon="10.123295878992561"><ele>157.0</ele><time>2026-04-07T16:22:12.992Z</time></trkpt><trkpt lat="45.58789131192038" lon="10.123180247811707"><ele>157.0</ele><time>2026-04-07T16:22:16.992Z</time></trkpt><trkpt lat="45.587912779965436" lon="10.123091445547749"><ele>157.0</ele><time>2026-04-07T16:22:19.992Z</time></trkpt><trkpt lat="45.587950810832744" lon="10.122977081521062"><ele>157.0</ele><time>2026-04-07T16:22:22.992Z</time></trkpt><trkpt lat="45.587957246591905" lon="10.122859153396421"><ele>157.0</ele><time>2026-04-07T16:22:25.992Z</time></trkpt><trkpt lat="45.587948466059245" lon="10.122744332951996"><ele>157.0</ele><time>2026-04-07T16:22:28.992Z</time></trkpt><trkpt lat="45.587944503084636" lon="10.12263494074634"><ele>157.0</ele><time>2026-04-07T16:22:31.992Z</time></trkpt><trkpt lat="45.58792305791047" lon="10.122527078857312"><ele>157.0</ele><time>2026-04-07T16:22:34.992Z</time></trkpt><trkpt lat="45.58787230286437" lon="10.122436297761439"><ele>157.0</ele><time>2026-04-07T16:22:37.992Z</time></trkpt><trkpt lat="45.58782040367875" lon="10.122353829678495"><ele>157.28571428571428</ele><time>2026-04-07T16:22:40.992Z</time></trkpt><trkpt lat="45.58776217903278" lon="10.122275125002057"><ele>157.57142857142856</ele><time>2026-04-07T16:22:43.992Z</time></trkpt><trkpt lat="45.58770837999105" lon="10.122195525671264"><ele>157.85714285714283</ele><time>2026-04-07T16:22:46.992Z</time></trkpt><trkpt lat="45.58765739302506" lon="10.122111753698311"><ele>158.14285714285714</ele><time>2026-04-07T16:22:49.992Z</time></trkpt><trkpt lat="45.5876172802711" lon="10.122024316763511"><ele>158.42857142857144</ele><time>2026-04-07T16:22:52.992Z</time></trkpt><trkpt lat="45.587578229620576" lon="10.121941439303752"><ele>158.7142857142857</ele><time>2026-04-07T16:22:55.992Z</time></trkpt><trkpt lat="45.58754833584929" lon="10.121851365874084"><ele>159.0</ele><time>2026-04-07T16:22:58.992Z</time></trkpt><trkpt lat="45.58751014982027" lon="10.121773505545699"><ele>159.0</ele><time>2026-04-07T16:23:01.992Z</time></trkpt><trkpt lat="45.58747365970347" lon="10.121685658623472"><ele>159.0</ele><time>2026-04-07T16:23:04.992Z</time></trkpt><trkpt lat="45.587457950936184" lon="10.121566776842219"><ele>159.0</ele><time>2026-04-07T16:23:08.992Z</time></trkpt><trkpt lat="45.587445580503896" lon="10.121461967326285"><ele>159.0</ele><time>2026-04-07T16:23:11.992Z</time></trkpt><trkpt lat="45.58743205657596" lon="10.121355832481509"><ele>159.0</ele><time>2026-04-07T16:23:14.992Z</time></trkpt><trkpt lat="45.587437242006494" lon="10.121253590030252"><ele>159.0</ele><time>2026-04-07T16:23:17.992Z</time></trkpt><trkpt lat="45.587438796191336" lon="10.121153431085874"><ele>159.0</ele><time>2026-04-07T16:23:20.992Z</time></trkpt><trkpt lat="45.587452775860655" lon="10.121053854867887"><ele>159.0</ele><time>2026-04-07T16:23:23.992Z</time></trkpt><trkpt lat="45.58746886439637" lon="10.120953594010405"><ele>159.0</ele><time>2026-04-07T16:23:26.992Z</time></trkpt><trkpt lat="45.58748426174773" lon="10.120860633691185"><ele>159.0</ele><time>2026-04-07T16:23:29.992Z</time></trkpt><trkpt lat="45.58750520149631" lon="10.120757279461783"><ele>159.0</ele><time>2026-04-07T16:23:32.992Z</time></trkpt><trkpt lat="45.58753284756013" lon="10.120650049442549"><ele>159.0</ele><time>2026-04-07T16:23:35.992Z</time></trkpt><trkpt lat="45.587543432855746" lon="10.120539467172199"><ele>159.0</ele><time>2026-04-07T16:23:38.992Z</time></trkpt><trkpt lat="45.58757340311651" lon="10.120438526741015"><ele>159.0</ele><time>2026-04-07T16:23:41.992Z</time></trkpt><trkpt lat="45.58762555353503" lon="10.120370988183643"><ele>159.0</ele><time>2026-04-07T16:23:44.992Z</time></trkpt><trkpt lat="45.58768105666452" lon="10.120312875021549"><ele>159.0</ele><time>2026-04-07T16:23:47.992Z</time></trkpt><trkpt lat="45.58772785213046" lon="10.12023785358406"><ele>159.0</ele><time>2026-04-07T16:23:50.991Z</time></trkpt><trkpt lat="45.587766942722084" lon="10.120151127385174"><ele>159.0</ele><time>2026-04-07T16:23:53.991Z</time></trkpt><trkpt lat="45.58781056240343" lon="10.12008329399567"><ele>159.0</ele><time>2026-04-07T16:23:56.991Z</time></trkpt><trkpt lat="45.5878606699868" lon="10.120019229232762"><ele>159.0</ele><time>2026-04-07T16:23:59.991Z</time></trkpt><trkpt lat="45.587899926902665" lon="10.119911536268653"><ele>159.0</ele><time>2026-04-07T16:24:02.991Z</time></trkpt><trkpt lat="45.58793847883462" lon="10.119829040365069"><ele>159.5</ele><time>2026-04-07T16:24:05.991Z</time></trkpt><trkpt lat="45.587985095307204" lon="10.119736913076878"><ele>160.0</ele><time>2026-04-07T16:24:08.991Z</time></trkpt><trkpt lat="45.5880199683886" lon="10.11963487495705"><ele>160.5</ele><time>2026-04-07T16:24:11.991Z</time></trkpt><trkpt lat="45.58805871635462" lon="10.11953077464707"><ele>161.0</ele><time>2026-04-07T16:24:14.991Z</time></trkpt><trkpt lat="45.58809235117849" lon="10.119420651451005"><ele>161.5</ele><time>2026-04-07T16:24:17.991Z</time></trkpt><trkpt lat="45.588115103364395" lon="10.119305292201366"><ele>162.0</ele><time>2026-04-07T16:24:20.991Z</time></trkpt><trkpt lat="45.588133300548556" lon="10.119187708413241"><ele>162.0</ele><time>2026-04-07T16:24:23.992Z</time></trkpt><trkpt lat="45.58817507509751" lon="10.11908534145138"><ele>162.0</ele><time>2026-04-07T16:24:26.992Z</time></trkpt><trkpt lat="45.588200173414904" lon="10.118981346579835"><ele>162.0</ele><time>2026-04-07T16:24:29.992Z</time></trkpt><trkpt lat="45.588229792028564" lon="10.118877513176514"><ele>162.0</ele><time>2026-04-07T16:24:32.992Z</time></trkpt><trkpt lat="45.58825544947851" lon="10.118772318114098"><ele>162.0</ele><time>2026-04-07T16:24:35.992Z</time></trkpt><trkpt lat="45.5882783872334" lon="10.118687782167093"><ele>162.0</ele><time>2026-04-07T16:24:37.992Z</time></trkpt><trkpt lat="45.58832885242275" lon="10.118605813812735"><ele>162.0</ele><time>2026-04-07T16:24:40.992Z</time></trkpt><trkpt lat="45.5883599807497" lon="10.118502516629032"><ele>162.0</ele><time>2026-04-07T16:24:43.992Z</time></trkpt><trkpt lat="45.588392680821556" lon="10.118388931021755"><ele>162.0</ele><time>2026-04-07T16:24:46.992Z</time></trkpt><trkpt lat="45.58841786926966" lon="10.118279975089754"><ele>162.0</ele><time>2026-04-07T16:24:49.992Z</time></trkpt><trkpt lat="45.58843630257017" lon="10.118181469960287"><ele>162.0</ele><time>2026-04-07T16:24:52.992Z</time></trkpt><trkpt lat="45.58844625414137" lon="10.118077149210956"><ele>162.0</ele><time>2026-04-07T16:24:55.992Z</time></trkpt><trkpt lat="45.588462735921276" lon="10.117965715623322"><ele>162.0</ele><time>2026-04-07T16:24:58.992Z</time></trkpt><trkpt lat="45.58848377006561" lon="10.117866748256251"><ele>162.0</ele><time>2026-04-07T16:25:01.992Z</time></trkpt><trkpt lat="45.58849224221624" lon="10.117757027102448"><ele>162.0</ele><time>2026-04-07T16:25:04.992Z</time></trkpt><trkpt lat="45.58851366813818" lon="10.117663016187477"><ele>162.0</ele><time>2026-04-07T16:25:07.992Z</time></trkpt><trkpt lat="45.588528144216" lon="10.117561566687787"><ele>162.0</ele><time>2026-04-07T16:25:10.992Z</time></trkpt><trkpt lat="45.588530526365666" lon="10.117457799911927"><ele>162.0</ele><time>2026-04-07T16:25:13.992Z</time></trkpt><trkpt lat="45.5885391670955" lon="10.117353498630294"><ele>162.0</ele><time>2026-04-07T16:25:16.992Z</time></trkpt><trkpt lat="45.58854771918966" lon="10.117239458008418"><ele>162.16666666666666</ele><time>2026-04-07T16:25:19.992Z</time></trkpt><trkpt lat="45.58855756488941" lon="10.11712869246227"><ele>162.33333333333334</ele><time>2026-04-07T16:25:22.992Z</time></trkpt><trkpt lat="45.58855544261822" lon="10.117021921495622"><ele>162.5</ele><time>2026-04-07T16:25:25.992Z</time></trkpt><trkpt lat="45.58857115008109" lon="10.116929833265205"><ele>162.66666666666669</ele><time>2026-04-07T16:25:28.992Z</time></trkpt><trkpt lat="45.588579545959945" lon="10.116826286117764"><ele>162.83333333333334</ele><time>2026-04-07T16:25:31.992Z</time></trkpt><trkpt lat="45.5885800938142" lon="10.116715257854638"><ele>163.0</ele><time>2026-04-07T16:25:34.992Z</time></trkpt><trkpt lat="45.58859131075622" lon="10.116598932737414"><ele>163.0</ele><time>2026-04-07T16:25:37.992Z</time></trkpt><trkpt lat="45.58859302608043" lon="10.116490408286987"><ele>163.0</ele><time>2026-04-07T16:25:40.992Z</time></trkpt><trkpt lat="45.58860192029762" lon="10.116379097367034"><ele>163.0</ele><time>2026-04-07T16:25:43.992Z</time></trkpt><trkpt lat="45.58861250680575" lon="10.116274538247623"><ele>163.0</ele><time>2026-04-07T16:25:46.992Z</time></trkpt><trkpt lat="45.58861480520016" lon="10.116165284317036"><ele>163.0</ele><time>2026-04-07T16:25:49.992Z</time></trkpt><trkpt lat="45.58862100570024" lon="10.116066154352986"><ele>163.0</ele><time>2026-04-07T16:25:52.992Z</time></trkpt><trkpt lat="45.58862315585539" lon="10.115945600447157"><ele>163.0</ele><time>2026-04-07T16:25:55.992Z</time></trkpt><trkpt lat="45.58862286290488" lon="10.115839616349323"><ele>163.0</ele><time>2026-04-07T16:25:58.991Z</time></trkpt><trkpt lat="45.58863181378871" lon="10.115735528062832"><ele>163.0</ele><time>2026-04-07T16:26:01.99Z</time></trkpt><trkpt lat="45.58863541535109" lon="10.115625057845243"><ele>163.0</ele><time>2026-04-07T16:26:04.99Z</time></trkpt><trkpt lat="45.58863752023741" lon="10.115506190845432"><ele>163.0</ele><time>2026-04-07T16:26:07.99Z</time></trkpt><trkpt lat="45.58865015835394" lon="10.115400519421376"><ele>163.0</ele><time>2026-04-07T16:26:10.99Z</time></trkpt><trkpt lat="45.58865362497108" lon="10.115286952863409"><ele>162.83333333333334</ele><time>2026-04-07T16:26:13.99Z</time></trkpt><trkpt lat="45.58865613752159" lon="10.115180971301559"><ele>162.66666666666669</ele><time>2026-04-07T16:26:16.99Z</time></trkpt><trkpt lat="45.58865701975998" lon="10.11507260874715"><ele>162.5</ele><time>2026-04-07T16:26:19.99Z</time></trkpt><trkpt lat="45.588666983520916" lon="10.114969087747415"><ele>162.33333333333334</ele><time>2026-04-07T16:26:22.99Z</time></trkpt><trkpt lat="45.588675223641786" lon="10.11486195775521"><ele>162.16666666666666</ele><time>2026-04-07T16:26:25.99Z</time></trkpt><trkpt lat="45.58867162363133" lon="10.114740377648408"><ele>162.0</ele><time>2026-04-07T16:26:28.99Z</time></trkpt><trkpt lat="45.58867943409036" lon="10.11462786838637"><ele>162.28571428571428</ele><time>2026-04-07T16:26:31.99Z</time></trkpt><trkpt lat="45.58869088862108" lon="10.11452541530663"><ele>162.57142857142856</ele><time>2026-04-07T16:26:34.99Z</time></trkpt><trkpt lat="45.58869747391042" lon="10.114412457135566"><ele>162.85714285714283</ele><time>2026-04-07T16:26:37.99Z</time></trkpt><trkpt lat="45.5887128631578" lon="10.114316745964565"><ele>163.14285714285714</ele><time>2026-04-07T16:26:40.99Z</time></trkpt><trkpt lat="45.588723143148236" lon="10.114197117103698"><ele>163.42857142857142</ele><time>2026-04-07T16:26:43.99Z</time></trkpt><trkpt lat="45.58872316703426" lon="10.114090636561901"><ele>163.7142857142857</ele><time>2026-04-07T16:26:46.99Z</time></trkpt><trkpt lat="45.58874146537662" lon="10.113994706007553"><ele>164.0</ele><time>2026-04-07T16:26:49.99Z</time></trkpt><trkpt lat="45.58874534819389" lon="10.113887374209568"><ele>164.16666666666666</ele><time>2026-04-07T16:26:52.99Z</time></trkpt><trkpt lat="45.58874521293638" lon="10.1137794579587"><ele>164.33333333333331</ele><time>2026-04-07T16:26:55.99Z</time></trkpt><trkpt lat="45.588788051658355" lon="10.113699039844025"><ele>164.5</ele><time>2026-04-07T16:26:58.99Z</time></trkpt><trkpt lat="45.58878637286905" lon="10.113580168010625"><ele>164.66666666666666</ele><time>2026-04-07T16:27:01.99Z</time></trkpt><trkpt lat="45.588809390572266" lon="10.11343499905856"><ele>164.83333333333334</ele><time>2026-04-07T16:27:05.99Z</time></trkpt><trkpt lat="45.58880994245196" lon="10.113323678843326"><ele>165.0</ele><time>2026-04-07T16:27:08.99Z</time></trkpt><trkpt lat="45.58881924619617" lon="10.11321308934027"><ele>165.16666666666666</ele><time>2026-04-07T16:27:11.99Z</time></trkpt><trkpt lat="45.58883254450469" lon="10.11310506330797"><ele>165.33333333333334</ele><time>2026-04-07T16:27:14.99Z</time></trkpt><trkpt lat="45.58883478159883" lon="10.113000664855894"><ele>165.5</ele><time>2026-04-07T16:27:17.99Z</time></trkpt><trkpt lat="45.58884905799469" lon="10.112897893393045"><ele>165.66666666666669</ele><time>2026-04-07T16:27:20.99Z</time></trkpt><trkpt lat="45.588850184038904" lon="10.112793472973896"><ele>165.83333333333334</ele><time>2026-04-07T16:27:23.99Z</time></trkpt><trkpt lat="45.58885301393756" lon="10.112679514949967"><ele>166.0</ele><time>2026-04-07T16:27:26.99Z</time></trkpt><trkpt lat="45.588859779411095" lon="10.112566230628971"><ele>166.0</ele><time>2026-04-07T16:27:29.99Z</time></trkpt><trkpt lat="45.58886941046954" lon="10.11246407878037"><ele>166.0</ele><time>2026-04-07T16:27:32.99Z</time></trkpt><trkpt lat="45.58887854412411" lon="10.112355614934906"><ele>166.0</ele><time>2026-04-07T16:27:35.99Z</time></trkpt><trkpt lat="45.58887923363477" lon="10.112253178754273"><ele>166.0</ele><time>2026-04-07T16:27:38.99Z</time></trkpt><trkpt lat="45.58888510198768" lon="10.112149167545667"><ele>166.0</ele><time>2026-04-07T16:27:41.99Z</time></trkpt><trkpt lat="45.5888938352103" lon="10.112042908340708"><ele>166.0</ele><time>2026-04-07T16:27:44.99Z</time></trkpt><trkpt lat="45.588900853105194" lon="10.111925195572189"><ele>166.57142857142856</ele><time>2026-04-07T16:27:47.99Z</time></trkpt><trkpt lat="45.588930345129334" lon="10.11184033533839"><ele>167.14285714285717</ele><time>2026-04-07T16:27:50.99Z</time></trkpt><trkpt lat="45.58894106700421" lon="10.111738480085934"><ele>167.71428571428572</ele><time>2026-04-07T16:27:53.99Z</time></trkpt><trkpt lat="45.58895326805841" lon="10.11163822464403"><ele>168.28571428571428</ele><time>2026-04-07T16:27:56.99Z</time></trkpt><trkpt lat="45.58896348990552" lon="10.111536490664223"><ele>168.85714285714283</ele><time>2026-04-07T16:27:59.99Z</time></trkpt><trkpt lat="45.58897488700776" lon="10.111436811254174"><ele>169.42857142857144</ele><time>2026-04-07T16:28:02.99Z</time></trkpt><trkpt lat="45.58898357788311" lon="10.1113365644243"><ele>170.0</ele><time>2026-04-07T16:28:05.989Z</time></trkpt><trkpt lat="45.58898617006409" lon="10.111213006474962"><ele>170.0</ele><time>2026-04-07T16:28:08.99Z</time></trkpt><trkpt lat="45.58899127134207" lon="10.111091642853445"><ele>170.0</ele><time>2026-04-07T16:28:11.989Z</time></trkpt><trkpt lat="45.589003180141475" lon="10.11098546522955"><ele>170.0</ele><time>2026-04-07T16:28:14.99Z</time></trkpt><trkpt lat="45.5890310260555" lon="10.110880156380942"><ele>170.0</ele><time>2026-04-07T16:28:17.989Z</time></trkpt><trkpt lat="45.58903865493685" lon="10.110779103707824"><ele>170.0</ele><time>2026-04-07T16:28:20.989Z</time></trkpt><trkpt lat="45.589034160614275" lon="10.110660139767964"><ele>170.0</ele><time>2026-04-07T16:28:23.989Z</time></trkpt><trkpt lat="45.58904961707809" lon="10.11055597630103"><ele>169.16666666666666</ele><time>2026-04-07T16:28:26.989Z</time></trkpt><trkpt lat="45.58907989294731" lon="10.110456159477073"><ele>168.33333333333331</ele><time>2026-04-07T16:28:29.989Z</time></trkpt><trkpt lat="45.58911704214122" lon="10.110381538023178"><ele>167.5</ele><time>2026-04-07T16:28:32.989Z</time></trkpt><trkpt lat="45.589185728253504" lon="10.110317741580403"><ele>166.66666666666666</ele><time>2026-04-07T16:28:35.989Z</time></trkpt><trkpt lat="45.58924937769904" lon="10.110283821441115"><ele>165.83333333333334</ele><time>2026-04-07T16:28:38.989Z</time></trkpt><trkpt lat="45.58936982017973" lon="10.110287052025617"><ele>165.0</ele><time>2026-04-07T16:28:43.989Z</time></trkpt><trkpt lat="45.589442332537615" lon="10.11026451267746"><ele>165.42857142857144</ele><time>2026-04-07T16:28:46.989Z</time></trkpt><trkpt lat="45.58951318712816" lon="10.110258018858387"><ele>165.85714285714286</ele><time>2026-04-07T16:28:49.989Z</time></trkpt><trkpt lat="45.58958592918163" lon="10.110249604659657"><ele>166.28571428571428</ele><time>2026-04-07T16:28:52.989Z</time></trkpt><trkpt lat="45.589659827127136" lon="10.110225913695396"><ele>166.71428571428572</ele><time>2026-04-07T16:28:55.989Z</time></trkpt><trkpt lat="45.58973313576666" lon="10.110231048631375"><ele>167.14285714285714</ele><time>2026-04-07T16:28:58.989Z</time></trkpt><trkpt lat="45.58980112394984" lon="10.110234485072587"><ele>167.57142857142858</ele><time>2026-04-07T16:29:01.989Z</time></trkpt><trkpt lat="45.58987899530212" lon="10.110249513004737"><ele>168.0</ele><time>2026-04-07T16:29:04.989Z</time></trkpt><trkpt lat="45.58994516414934" lon="10.110239728353157"><ele>168.0</ele><time>2026-04-07T16:29:07.989Z</time></trkpt><trkpt lat="45.59002062477487" lon="10.110247281323637"><ele>168.0</ele><time>2026-04-07T16:29:10.989Z</time></trkpt><trkpt lat="45.59009140310519" lon="10.11024009447025"><ele>168.0</ele><time>2026-04-07T16:29:13.989Z</time></trkpt><trkpt lat="45.59016595409667" lon="10.110218609757247"><ele>168.0</ele><time>2026-04-07T16:29:16.989Z</time></trkpt><trkpt lat="45.590241045618754" lon="10.110204206994009"><ele>168.0</ele><time>2026-04-07T16:29:19.989Z</time></trkpt><trkpt lat="45.59031723193509" lon="10.11017912537543"><ele>168.0</ele><time>2026-04-07T16:29:22.989Z</time></trkpt><trkpt lat="45.59039163196112" lon="10.110166438923432"><ele>168.14285714285714</ele><time>2026-04-07T16:29:25.989Z</time></trkpt><trkpt lat="45.590456960206495" lon="10.110153139335146"><ele>168.28571428571428</ele><time>2026-04-07T16:29:28.989Z</time></trkpt><trkpt lat="45.59053127150413" lon="10.110122601786864"><ele>168.42857142857144</ele><time>2026-04-07T16:29:31.989Z</time></trkpt><trkpt lat="45.590603476686084" lon="10.110136956531287"><ele>168.57142857142856</ele><time>2026-04-07T16:29:34.989Z</time></trkpt><trkpt lat="45.590687690578164" lon="10.110143390471853"><ele>168.71428571428572</ele><time>2026-04-07T16:29:38.989Z</time></trkpt><trkpt lat="45.59075877200455" lon="10.110136007623156"><ele>168.85714285714286</ele><time>2026-04-07T16:29:41.989Z</time></trkpt><trkpt lat="45.590835226825924" lon="10.110128100655047"><ele>169.0</ele><time>2026-04-07T16:29:44.989Z</time></trkpt><trkpt lat="45.59091060810661" lon="10.110120601053824"><ele>169.0</ele><time>2026-04-07T16:29:47.989Z</time></trkpt><trkpt lat="45.59098247508327" lon="10.110116672774122"><ele>169.0</ele><time>2026-04-07T16:29:50.989Z</time></trkpt><trkpt lat="45.591056888708245" lon="10.110118889994439"><ele>169.0</ele><time>2026-04-07T16:29:53.989Z</time></trkpt><trkpt lat="45.591125804708255" lon="10.110119803180377"><ele>169.0</ele><time>2026-04-07T16:29:56.989Z</time></trkpt><trkpt lat="45.59119802073261" lon="10.110118553894958"><ele>169.0</ele><time>2026-04-07T16:29:59.989Z</time></trkpt><trkpt lat="45.59126648382564" lon="10.11010977688438"><ele>169.0</ele><time>2026-04-07T16:30:02.989Z</time></trkpt><trkpt lat="45.591335434218415" lon="10.110110456575011"><ele>169.0</ele><time>2026-04-07T16:30:05.989Z</time></trkpt><trkpt lat="45.59142942474626" lon="10.110114743404795"><ele>169.14285714285714</ele><time>2026-04-07T16:30:09.989Z</time></trkpt><trkpt lat="45.59149706861112" lon="10.110132146376047"><ele>169.28571428571428</ele><time>2026-04-07T16:30:12.989Z</time></trkpt><trkpt lat="45.591564820819364" lon="10.110143495135594"><ele>169.42857142857144</ele><time>2026-04-07T16:30:15.989Z</time></trkpt><trkpt lat="45.591634319093565" lon="10.110165602807285"><ele>169.57142857142856</ele><time>2026-04-07T16:30:18.989Z</time></trkpt><trkpt lat="45.59169911439082" lon="10.110192276023266"><ele>169.7142857142857</ele><time>2026-04-07T16:30:21.989Z</time></trkpt><trkpt lat="45.59178069892023" lon="10.110212816409378"><ele>169.85714285714286</ele><time>2026-04-07T16:30:24.989Z</time></trkpt><trkpt lat="45.59184433453445" lon="10.110252543374434"><ele>170.0</ele><time>2026-04-07T16:30:27.989Z</time></trkpt><trkpt lat="45.59189958884692" lon="10.11032220869189"><ele>170.0</ele><time>2026-04-07T16:30:30.989Z</time></trkpt><trkpt lat="45.59195430663705" lon="10.110371270331624"><ele>170.0</ele><time>2026-04-07T16:30:33.989Z</time></trkpt><trkpt lat="45.59200750378013" lon="10.110421635333305"><ele>170.0</ele><time>2026-04-07T16:30:36.989Z</time></trkpt><trkpt lat="45.59206898291195" lon="10.110450980583002"><ele>170.0</ele><time>2026-04-07T16:30:39.989Z</time></trkpt><trkpt lat="45.592132020994576" lon="10.11051536478354"><ele>170.0</ele><time>2026-04-07T16:30:42.989Z</time></trkpt><trkpt lat="45.59220674063457" lon="10.110566134963308"><ele>170.0</ele><time>2026-04-07T16:30:45.989Z</time></trkpt><trkpt lat="45.59228120594451" lon="10.110622101669154"><ele>170.0</ele><time>2026-04-07T16:30:48.989Z</time></trkpt><trkpt lat="45.59235650772735" lon="10.110681860009027"><ele>170.0</ele><time>2026-04-07T16:30:51.989Z</time></trkpt><trkpt lat="45.59243359196255" lon="10.110748341414647"><ele>170.0</ele><time>2026-04-07T16:30:54.989Z</time></trkpt><trkpt lat="45.5925092167681" lon="10.110777616196573"><ele>170.0</ele><time>2026-04-07T16:30:57.989Z</time></trkpt><trkpt lat="45.59258955593166" lon="10.110785167700616"><ele>170.0</ele><time>2026-04-07T16:31:00.989Z</time></trkpt><trkpt lat="45.592658084057256" lon="10.110818868285142"><ele>170.0</ele><time>2026-04-07T16:31:03.989Z</time></trkpt><trkpt lat="45.592738539089495" lon="10.11082059688091"><ele>170.0</ele><time>2026-04-07T16:31:06.989Z</time></trkpt><trkpt lat="45.592813932086294" lon="10.110828492110736"><ele>170.16666666666666</ele><time>2026-04-07T16:31:09.989Z</time></trkpt><trkpt lat="45.592879922585034" lon="10.110858588672786"><ele>170.33333333333331</ele><time>2026-04-07T16:31:12.989Z</time></trkpt><trkpt lat="45.59295885787734" lon="10.110877949751812"><ele>170.5</ele><time>2026-04-07T16:31:16.989Z</time></trkpt><trkpt lat="45.593026729484016" lon="10.110915747435598"><ele>170.66666666666666</ele><time>2026-04-07T16:31:19.989Z</time></trkpt><trkpt lat="45.59307737326985" lon="10.111014080438345"><ele>170.83333333333334</ele><time>2026-04-07T16:31:22.989Z</time></trkpt><trkpt lat="45.59316977073393" lon="10.11097431481803"><ele>171.0</ele><time>2026-04-07T16:31:25.989Z</time></trkpt><trkpt lat="45.59324968034356" lon="10.110960890605904"><ele>171.0</ele><time>2026-04-07T16:31:28.989Z</time></trkpt><trkpt lat="45.59333393310345" lon="10.110928197808095"><ele>171.0</ele><time>2026-04-07T16:31:31.989Z</time></trkpt><trkpt lat="45.593413687642844" lon="10.110924078535664"><ele>171.0</ele><time>2026-04-07T16:31:34.989Z</time></trkpt><trkpt lat="45.593486710437304" lon="10.110931566937793"><ele>171.0</ele><time>2026-04-07T16:31:37.989Z</time></trkpt><trkpt lat="45.593562640989575" lon="10.1109423648978"><ele>171.0</ele><time>2026-04-07T16:31:40.989Z</time></trkpt><trkpt lat="45.59363534717789" lon="10.110938915727587"><ele>171.0</ele><time>2026-04-07T16:31:43.989Z</time></trkpt><trkpt lat="45.593715127436894" lon="10.110917690991458"><ele>170.99999999999997</ele><time>2026-04-07T16:31:46.989Z</time></trkpt><trkpt lat="45.59378292601777" lon="10.11091762930566"><ele>171.0</ele><time>2026-04-07T16:31:49.989Z</time></trkpt><trkpt lat="45.593857059518584" lon="10.110910876102954"><ele>171.0</ele><time>2026-04-07T16:31:52.989Z</time></trkpt><trkpt lat="45.59392305075984" lon="10.110925426727318"><ele>171.0</ele><time>2026-04-07T16:31:55.989Z</time></trkpt><trkpt lat="45.59398660684149" lon="10.110928083645133"><ele>171.0</ele><time>2026-04-07T16:31:58.989Z</time></trkpt><trkpt lat="45.59406421888424" lon="10.11090477172478"><ele>170.99999999999997</ele><time>2026-04-07T16:32:01.989Z</time></trkpt><trkpt lat="45.59413321030631" lon="10.110876474190986"><ele>171.0</ele><time>2026-04-07T16:32:04.989Z</time></trkpt><trkpt lat="45.59419702790904" lon="10.110826893001537"><ele>170.99999999999997</ele><time>2026-04-07T16:32:07.989Z</time></trkpt><trkpt lat="45.59426840453599" lon="10.110789607576521"><ele>171.0</ele><time>2026-04-07T16:32:10.989Z</time></trkpt><trkpt lat="45.59432581844328" lon="10.110729165126678"><ele>171.0</ele><time>2026-04-07T16:32:13.989Z</time></trkpt><trkpt lat="45.59438095188866" lon="10.110666700765968"><ele>171.0</ele><time>2026-04-07T16:32:16.988Z</time></trkpt><trkpt lat="45.594434672005605" lon="10.110589157972386"><ele>171.0</ele><time>2026-04-07T16:32:19.988Z</time></trkpt><trkpt lat="45.59448305830876" lon="10.110523653911523"><ele>170.99999999999997</ele><time>2026-04-07T16:32:22.988Z</time></trkpt><trkpt lat="45.59455456877818" lon="10.110477053365091"><ele>171.0</ele><time>2026-04-07T16:32:25.988Z</time></trkpt><trkpt lat="45.5946261213378" lon="10.110427714255154"><ele>171.14285714285714</ele><time>2026-04-07T16:32:28.989Z</time></trkpt><trkpt lat="45.59471262675913" lon="10.110403609847067"><ele>171.28571428571428</ele><time>2026-04-07T16:32:31.989Z</time></trkpt><trkpt lat="45.59478755845401" lon="10.110362418864058"><ele>171.42857142857144</ele><time>2026-04-07T16:32:34.989Z</time></trkpt><trkpt lat="45.594854700012846" lon="10.110326091955528"><ele>171.57142857142856</ele><time>2026-04-07T16:32:37.989Z</time></trkpt><trkpt lat="45.5949124328205" lon="10.110282275879893"><ele>171.71428571428572</ele><time>2026-04-07T16:32:40.989Z</time></trkpt><trkpt lat="45.5949703137509" lon="10.110215678936274"><ele>171.85714285714286</ele><time>2026-04-07T16:32:43.989Z</time></trkpt><trkpt lat="45.59501385795609" lon="10.1101429226433"><ele>172.0</ele><time>2026-04-07T16:32:46.989Z</time></trkpt><trkpt lat="45.595026446996826" lon="10.110049178416487"><ele>172.0</ele><time>2026-04-07T16:32:49.989Z</time></trkpt><trkpt lat="45.595070084117005" lon="10.109963249371173"><ele>172.0</ele><time>2026-04-07T16:32:52.989Z</time></trkpt><trkpt lat="45.595129918412404" lon="10.10991195052166"><ele>172.0</ele><time>2026-04-07T16:32:54.989Z</time></trkpt><trkpt lat="45.59519393185287" lon="10.109842659884258"><ele>172.0</ele><time>2026-04-07T16:32:57.989Z</time></trkpt><trkpt lat="45.595263367267115" lon="10.109812010009552"><ele>172.0</ele><time>2026-04-07T16:33:00.989Z</time></trkpt><trkpt lat="45.59533277982299" lon="10.109838161184383"><ele>172.0</ele><time>2026-04-07T16:33:03.989Z</time></trkpt><trkpt lat="45.59548009134744" lon="10.109833220259839"><ele>172.42857142857144</ele><time>2026-04-07T16:33:09.989Z</time></trkpt><trkpt lat="45.59555135056789" lon="10.109801953875504"><ele>172.85714285714286</ele><time>2026-04-07T16:33:12.989Z</time></trkpt><trkpt lat="45.595626586504835" lon="10.10978735347395"><ele>173.28571428571428</ele><time>2026-04-07T16:33:15.989Z</time></trkpt><trkpt lat="45.59569315586258" lon="10.109778877695081"><ele>173.71428571428572</ele><time>2026-04-07T16:33:18.989Z</time></trkpt><trkpt lat="45.59575971721433" lon="10.10974922910969"><ele>174.14285714285714</ele><time>2026-04-07T16:33:21.989Z</time></trkpt><trkpt lat="45.59583151927805" lon="10.109748497087168"><ele>174.57142857142858</ele><time>2026-04-07T16:33:24.989Z</time></trkpt><trkpt lat="45.59590300432386" lon="10.109736405005371"><ele>175.0</ele><time>2026-04-07T16:33:27.989Z</time></trkpt><trkpt lat="45.59597704421072" lon="10.109736290594107"><ele>175.0</ele><time>2026-04-07T16:33:30.989Z</time></trkpt><trkpt lat="45.596059288736235" lon="10.109738421122962"><ele>175.0</ele><time>2026-04-07T16:33:33.989Z</time></trkpt><trkpt lat="45.59614079184943" lon="10.109732353228427"><ele>175.0</ele><time>2026-04-07T16:33:36.989Z</time></trkpt><trkpt lat="45.596228718230506" lon="10.109713478167016"><ele>175.0</ele><time>2026-04-07T16:33:39.989Z</time></trkpt><trkpt lat="45.596301076104176" lon="10.109697128126646"><ele>175.0</ele><time>2026-04-07T16:33:42.989Z</time></trkpt><trkpt lat="45.59637878529171" lon="10.109695178552151"><ele>175.0</ele><time>2026-04-07T16:33:45.989Z</time></trkpt><trkpt lat="45.59644549904525" lon="10.109677539256197"><ele>174.85714285714286</ele><time>2026-04-07T16:33:48.989Z</time></trkpt><trkpt lat="45.59651929723366" lon="10.109669466143657"><ele>174.71428571428572</ele><time>2026-04-07T16:33:51.989Z</time></trkpt><trkpt lat="45.59658912018934" lon="10.10965868421237"><ele>174.57142857142856</ele><time>2026-04-07T16:33:54.989Z</time></trkpt><trkpt lat="45.5966530466898" lon="10.109676732964697"><ele>174.42857142857144</ele><time>2026-04-07T16:33:57.989Z</time></trkpt><trkpt lat="45.59672454557618" lon="10.109659378874895"><ele>174.28571428571428</ele><time>2026-04-07T16:34:00.989Z</time></trkpt><trkpt lat="45.596793239785946" lon="10.109650491645056"><ele>174.14285714285714</ele><time>2026-04-07T16:34:03.989Z</time></trkpt><trkpt lat="45.59686463813944" lon="10.109659138537026"><ele>174.0</ele><time>2026-04-07T16:34:06.989Z</time></trkpt><trkpt lat="45.5969340937836" lon="10.109659473294572"><ele>174.33333333333334</ele><time>2026-04-07T16:34:09.989Z</time></trkpt><trkpt lat="45.59700459845844" lon="10.109646738980866"><ele>174.66666666666666</ele><time>2026-04-07T16:34:12.989Z</time></trkpt><trkpt lat="45.59709001300602" lon="10.109663905886386"><ele>175.0</ele><time>2026-04-07T16:34:16.989Z</time></trkpt><trkpt lat="45.597165185720726" lon="10.109648632504108"><ele>175.33333333333331</ele><time>2026-04-07T16:34:19.989Z</time></trkpt><trkpt lat="45.59723770525446" lon="10.109605024446688"><ele>175.66666666666666</ele><time>2026-04-07T16:34:22.988Z</time></trkpt><trkpt lat="45.59732846508455" lon="10.109584469349194"><ele>176.0</ele><time>2026-04-07T16:34:25.988Z</time></trkpt><trkpt lat="45.59738896818218" lon="10.10963129832155"><ele>176.0</ele><time>2026-04-07T16:34:27.988Z</time></trkpt><trkpt lat="45.59743260260989" lon="10.109728092401845"><ele>176.0</ele><time>2026-04-07T16:34:30.987Z</time></trkpt><trkpt lat="45.59744625841913" lon="10.109820749751876"><ele>176.0</ele><time>2026-04-07T16:34:33.987Z</time></trkpt><trkpt lat="45.59746715054084" lon="10.109915143874284"><ele>176.0</ele><time>2026-04-07T16:34:36.987Z</time></trkpt><trkpt lat="45.59747127654267" lon="10.110023074909547"><ele>176.0</ele><time>2026-04-07T16:34:39.987Z</time></trkpt><trkpt lat="45.59750371080397" lon="10.110126934042851"><ele>176.0</ele><time>2026-04-07T16:34:42.987Z</time></trkpt><trkpt lat="45.59751496127134" lon="10.110256266409156"><ele>176.0</ele><time>2026-04-07T16:34:45.987Z</time></trkpt><trkpt lat="45.59753849284865" lon="10.110357445707535"><ele>176.0</ele><time>2026-04-07T16:34:48.987Z</time></trkpt><trkpt lat="45.59755213190739" lon="10.110461315601082"><ele>176.0</ele><time>2026-04-07T16:34:51.987Z</time></trkpt><trkpt lat="45.59757123223925" lon="10.110557752964317"><ele>176.0</ele><time>2026-04-07T16:34:54.987Z</time></trkpt><trkpt lat="45.59758534541539" lon="10.110670482802613"><ele>176.0</ele><time>2026-04-07T16:34:57.987Z</time></trkpt><trkpt lat="45.59759371689453" lon="10.110762892646852"><ele>176.0</ele><time>2026-04-07T16:35:00.987Z</time></trkpt><trkpt lat="45.597597062448706" lon="10.1108725860213"><ele>176.0</ele><time>2026-04-07T16:35:03.987Z</time></trkpt><trkpt lat="45.59757246113498" lon="10.11097245168484"><ele>176.14285714285714</ele><time>2026-04-07T16:35:06.987Z</time></trkpt><trkpt lat="45.59753055420724" lon="10.111054833176203"><ele>176.28571428571428</ele><time>2026-04-07T16:35:09.987Z</time></trkpt><trkpt lat="45.597496864762036" lon="10.111146205674826"><ele>176.42857142857144</ele><time>2026-04-07T16:35:12.987Z</time></trkpt><trkpt lat="45.597476615767604" lon="10.111234082651867"><ele>176.57142857142856</ele><time>2026-04-07T16:35:15.987Z</time></trkpt><trkpt lat="45.597463188378704" lon="10.111346759199344"><ele>176.7142857142857</ele><time>2026-04-07T16:35:19.987Z</time></trkpt><trkpt lat="45.59740477368692" lon="10.111403345154546"><ele>176.85714285714286</ele><time>2026-04-07T16:35:21.987Z</time></trkpt><trkpt lat="45.59734383907842" lon="10.111459835196403"><ele>177.0</ele><time>2026-04-07T16:35:23.987Z</time></trkpt><trkpt lat="45.59729170330822" lon="10.11156985459202"><ele>177.5</ele><time>2026-04-07T16:35:26.987Z</time></trkpt><trkpt lat="45.59726215088393" lon="10.111691266620985"><ele>178.0</ele><time>2026-04-07T16:35:29.987Z</time></trkpt><trkpt lat="45.59725182518545" lon="10.111784514424574"><ele>178.5</ele><time>2026-04-07T16:35:31.987Z</time></trkpt><trkpt lat="45.59720535035643" lon="10.111871512335437"><ele>179.0</ele><time>2026-04-07T16:35:34.987Z</time></trkpt><trkpt lat="45.59715650020758" lon="10.111964998594477"><ele>179.5</ele><time>2026-04-07T16:35:37.987Z</time></trkpt><trkpt lat="45.59708472138581" lon="10.112026198482964"><ele>180.0</ele><time>2026-04-07T16:35:40.987Z</time></trkpt><trkpt lat="45.59701880761297" lon="10.112091301135232"><ele>179.16666666666666</ele><time>2026-04-07T16:35:43.987Z</time></trkpt><trkpt lat="45.596971834035664" lon="10.11219479843357"><ele>178.33333333333334</ele><time>2026-04-07T16:35:46.987Z</time></trkpt><trkpt lat="45.59692964145204" lon="10.112264633196368"><ele>177.5</ele><time>2026-04-07T16:35:48.987Z</time></trkpt><trkpt lat="45.5969148390048" lon="10.112382538432142"><ele>176.66666666666669</ele><time>2026-04-07T16:35:51.987Z</time></trkpt><trkpt lat="45.596878033414804" lon="10.112482417609531"><ele>175.83333333333334</ele><time>2026-04-07T16:35:54.987Z</time></trkpt><trkpt lat="45.59687363404448" lon="10.112595158453187"><ele>175.0</ele><time>2026-04-07T16:35:57.987Z</time></trkpt><trkpt lat="45.59685467803437" lon="10.11270455058223"><ele>174.71428571428572</ele><time>2026-04-07T16:36:00.987Z</time></trkpt><trkpt lat="45.596839788348476" lon="10.112808187358343"><ele>174.42857142857144</ele><time>2026-04-07T16:36:03.987Z</time></trkpt><trkpt lat="45.59683183937641" lon="10.11290917125801"><ele>174.14285714285714</ele><time>2026-04-07T16:36:06.987Z</time></trkpt><trkpt lat="45.596818232766594" lon="10.113016891259994"><ele>173.85714285714286</ele><time>2026-04-07T16:36:09.987Z</time></trkpt><trkpt lat="45.596796167007426" lon="10.113119274854624"><ele>173.57142857142858</ele><time>2026-04-07T16:36:12.987Z</time></trkpt><trkpt lat="45.596786402135535" lon="10.113227829349315"><ele>173.28571428571428</ele><time>2026-04-07T16:36:15.987Z</time></trkpt><trkpt lat="45.59677826354563" lon="10.113320680304469"><ele>173.0</ele><time>2026-04-07T16:36:18.987Z</time></trkpt><trkpt lat="45.59676873593823" lon="10.113424620991132"><ele>173.0</ele><time>2026-04-07T16:36:21.988Z</time></trkpt><trkpt lat="45.59675516174881" lon="10.11352683769073"><ele>173.0</ele><time>2026-04-07T16:36:24.988Z</time></trkpt><trkpt lat="45.59675834495731" lon="10.113635364876453"><ele>173.0</ele><time>2026-04-07T16:36:27.987Z</time></trkpt><trkpt lat="45.59675342456117" lon="10.113735626364287"><ele>173.0</ele><time>2026-04-07T16:36:30.987Z</time></trkpt><trkpt lat="45.596767638775624" lon="10.113839731351053"><ele>173.0</ele><time>2026-04-07T16:36:33.987Z</time></trkpt><trkpt lat="45.59679217439897" lon="10.113937570384678"><ele>173.0</ele><time>2026-04-07T16:36:36.987Z</time></trkpt><trkpt lat="45.59680955160673" lon="10.114033336096252"><ele>173.0</ele><time>2026-04-07T16:36:39.988Z</time></trkpt><trkpt lat="45.59682025007055" lon="10.114139154674097"><ele>172.83333333333331</ele><time>2026-04-07T16:36:42.988Z</time></trkpt><trkpt lat="45.596835487258026" lon="10.11424402126964"><ele>172.66666666666666</ele><time>2026-04-07T16:36:45.988Z</time></trkpt><trkpt lat="45.59684400741628" lon="10.114346319568913"><ele>172.5</ele><time>2026-04-07T16:36:49.988Z</time></trkpt><trkpt lat="45.59686160805098" lon="10.114461871376335"><ele>172.33333333333334</ele><time>2026-04-07T16:36:52.988Z</time></trkpt><trkpt lat="45.59688442881429" lon="10.114563396593041"><ele>172.16666666666669</ele><time>2026-04-07T16:36:55.988Z</time></trkpt><trkpt lat="45.59689804947904" lon="10.114674519830944"><ele>172.0</ele><time>2026-04-07T16:36:58.988Z</time></trkpt><trkpt lat="45.59690751776839" lon="10.11477823757797"><ele>172.0</ele><time>2026-04-07T16:37:01.988Z</time></trkpt><trkpt lat="45.59692335231856" lon="10.114883253339185"><ele>172.0</ele><time>2026-04-07T16:37:04.988Z</time></trkpt><trkpt lat="45.59693282405279" lon="10.114992021050503"><ele>172.0</ele><time>2026-04-07T16:37:07.988Z</time></trkpt><trkpt lat="45.59695041337759" lon="10.11509012213193"><ele>172.0</ele><time>2026-04-07T16:37:10.988Z</time></trkpt><trkpt lat="45.59696495178541" lon="10.115212229657743"><ele>172.0</ele><time>2026-04-07T16:37:14.988Z</time></trkpt><trkpt lat="45.596998677797316" lon="10.115308401437119"><ele>172.0</ele><time>2026-04-07T16:37:17.988Z</time></trkpt><trkpt lat="45.597006450950964" lon="10.115408028963014"><ele>172.0</ele><time>2026-04-07T16:37:20.988Z</time></trkpt><trkpt lat="45.59701797655182" lon="10.115522575226407"><ele>172.0</ele><time>2026-04-07T16:37:23.988Z</time></trkpt><trkpt lat="45.59702784481677" lon="10.115626178451413"><ele>172.0</ele><time>2026-04-07T16:37:26.988Z</time></trkpt><trkpt lat="45.59703493896695" lon="10.11574301462206"><ele>172.0</ele><time>2026-04-07T16:37:29.988Z</time></trkpt><trkpt lat="45.597053294879636" lon="10.115860698207557"><ele>172.0</ele><time>2026-04-07T16:37:32.988Z</time></trkpt><trkpt lat="45.59706666616929" lon="10.115963514656949"><ele>172.0</ele><time>2026-04-07T16:37:35.988Z</time></trkpt><trkpt lat="45.59707595440925" lon="10.116075823014048"><ele>172.00000000000003</ele><time>2026-04-07T16:37:38.988Z</time></trkpt><trkpt lat="45.5970848557023" lon="10.116176204083294"><ele>172.0</ele><time>2026-04-07T16:37:41.988Z</time></trkpt><trkpt lat="45.59709342403298" lon="10.116278520243487"><ele>172.0</ele><time>2026-04-07T16:37:44.988Z</time></trkpt><trkpt lat="45.59710782157224" lon="10.116378120878194"><ele>172.0</ele><time>2026-04-07T16:37:47.988Z</time></trkpt><trkpt lat="45.59710678188914" lon="10.116483370983863"><ele>172.0</ele><time>2026-04-07T16:37:50.988Z</time></trkpt><trkpt lat="45.59710537989016" lon="10.116591032547987"><ele>172.00000000000003</ele><time>2026-04-07T16:37:53.988Z</time></trkpt><trkpt lat="45.5971184195425" lon="10.116679441925749"><ele>172.0</ele><time>2026-04-07T16:37:56.988Z</time></trkpt><trkpt lat="45.59710968504417" lon="10.116792221794393"><ele>171.85714285714286</ele><time>2026-04-07T16:37:59.988Z</time></trkpt><trkpt lat="45.59710501787993" lon="10.116900868730934"><ele>171.71428571428572</ele><time>2026-04-07T16:38:02.988Z</time></trkpt><trkpt lat="45.59710292879527" lon="10.116995429478099"><ele>171.57142857142856</ele><time>2026-04-07T16:38:05.988Z</time></trkpt><trkpt lat="45.59709069155909" lon="10.117098960293095"><ele>171.42857142857144</ele><time>2026-04-07T16:38:08.988Z</time></trkpt><trkpt lat="45.59707500765772" lon="10.117211921239768"><ele>171.28571428571428</ele><time>2026-04-07T16:38:11.988Z</time></trkpt><trkpt lat="45.59707752665597" lon="10.117317475607145"><ele>171.14285714285714</ele><time>2026-04-07T16:38:14.988Z</time></trkpt><trkpt lat="45.597071779252126" lon="10.11742068967434"><ele>171.0</ele><time>2026-04-07T16:38:17.988Z</time></trkpt><trkpt lat="45.59707399559594" lon="10.117521183510712"><ele>170.85714285714283</ele><time>2026-04-07T16:38:20.988Z</time></trkpt><trkpt lat="45.597074144244544" lon="10.117619750870562"><ele>170.71428571428572</ele><time>2026-04-07T16:38:23.988Z</time></trkpt><trkpt lat="45.597071563394856" lon="10.117724527589413"><ele>170.57142857142856</ele><time>2026-04-07T16:38:26.988Z</time></trkpt><trkpt lat="45.597069760376705" lon="10.117837322150896"><ele>170.42857142857142</ele><time>2026-04-07T16:38:29.988Z</time></trkpt><trkpt lat="45.59706208088416" lon="10.11793757933762"><ele>170.28571428571428</ele><time>2026-04-07T16:38:32.987Z</time></trkpt><trkpt lat="45.59704612871765" lon="10.118038813514891"><ele>170.14285714285714</ele><time>2026-04-07T16:38:35.987Z</time></trkpt><trkpt lat="45.59704440358078" lon="10.118142843049517"><ele>170.0</ele><time>2026-04-07T16:38:38.987Z</time></trkpt><trkpt lat="45.59703408775143" lon="10.118233805242296"><ele>169.85714285714286</ele><time>2026-04-07T16:38:41.987Z</time></trkpt><trkpt lat="45.597021723458525" lon="10.1183372275105"><ele>169.7142857142857</ele><time>2026-04-07T16:38:44.987Z</time></trkpt><trkpt lat="45.5970291538393" lon="10.118438900474269"><ele>169.57142857142856</ele><time>2026-04-07T16:38:47.986Z</time></trkpt><trkpt lat="45.59702214112142" lon="10.11854297652807"><ele>169.42857142857144</ele><time>2026-04-07T16:38:50.986Z</time></trkpt><trkpt lat="45.597006926960354" lon="10.118650558262685"><ele>169.28571428571428</ele><time>2026-04-07T16:38:53.986Z</time></trkpt><trkpt lat="45.59700332230826" lon="10.118752178316418"><ele>169.14285714285714</ele><time>2026-04-07T16:38:56.986Z</time></trkpt><trkpt lat="45.596980210418074" lon="10.118865992152525"><ele>169.0</ele><time>2026-04-07T16:38:59.986Z</time></trkpt><trkpt lat="45.59696210470697" lon="10.118966476204188"><ele>169.0</ele><time>2026-04-07T16:39:02.986Z</time></trkpt><trkpt lat="45.596938744368884" lon="10.119075696034146"><ele>169.0</ele><time>2026-04-07T16:39:05.986Z</time></trkpt><trkpt lat="45.59692650214568" lon="10.1191744106853"><ele>169.0</ele><time>2026-04-07T16:39:08.986Z</time></trkpt><trkpt lat="45.59692153371529" lon="10.119270463414392"><ele>169.0</ele><time>2026-04-07T16:39:11.986Z</time></trkpt><trkpt lat="45.596915981201654" lon="10.119375751600716"><ele>169.0</ele><time>2026-04-07T16:39:14.986Z</time></trkpt><trkpt lat="45.59689941848157" lon="10.119475132629482"><ele>169.0</ele><time>2026-04-07T16:39:17.986Z</time></trkpt><trkpt lat="45.596890262414924" lon="10.119566696720952"><ele>169.0</ele><time>2026-04-07T16:39:20.986Z</time></trkpt><trkpt lat="45.596871684846796" lon="10.119657254685235"><ele>169.0</ele><time>2026-04-07T16:39:23.986Z</time></trkpt><trkpt lat="45.59686864547259" lon="10.119775856000023"><ele>169.0</ele><time>2026-04-07T16:39:27.986Z</time></trkpt><trkpt lat="45.59686470122885" lon="10.11988507627405"><ele>169.0</ele><time>2026-04-07T16:39:30.986Z</time></trkpt><trkpt lat="45.59686609906255" lon="10.119987688560842"><ele>169.0</ele><time>2026-04-07T16:39:33.986Z</time></trkpt><trkpt lat="45.59686918686904" lon="10.120094815998621"><ele>169.0</ele><time>2026-04-07T16:39:36.986Z</time></trkpt><trkpt lat="45.59686531828152" lon="10.120185479843702"><ele>169.0</ele><time>2026-04-07T16:39:39.986Z</time></trkpt><trkpt lat="45.59686105518636" lon="10.120287122542944"><ele>169.0</ele><time>2026-04-07T16:39:42.986Z</time></trkpt><trkpt lat="45.59685475335708" lon="10.12038027066235"><ele>168.5</ele><time>2026-04-07T16:39:45.986Z</time></trkpt><trkpt lat="45.596837644008524" lon="10.120490051574972"><ele>168.0</ele><time>2026-04-07T16:39:49.986Z</time></trkpt><trkpt lat="45.59683127492115" lon="10.120590925837975"><ele>167.5</ele><time>2026-04-07T16:39:52.986Z</time></trkpt><trkpt lat="45.59684520219454" lon="10.120690868204562"><ele>167.0</ele><time>2026-04-07T16:39:55.986Z</time></trkpt><trkpt lat="45.59688054579487" lon="10.120790437611205"><ele>166.5</ele><time>2026-04-07T16:39:58.987Z</time></trkpt><trkpt lat="45.596863554095336" lon="10.120878526839354"><ele>166.0</ele><time>2026-04-07T16:40:01.987Z</time></trkpt><trkpt lat="45.596851892141984" lon="10.12100744434917"><ele>165.83333333333334</ele><time>2026-04-07T16:40:04.987Z</time></trkpt><trkpt lat="45.59682873468543" lon="10.121130382799713"><ele>165.66666666666669</ele><time>2026-04-07T16:40:07.987Z</time></trkpt><trkpt lat="45.596808165539876" lon="10.121254922033296"><ele>165.5</ele><time>2026-04-07T16:40:10.987Z</time></trkpt><trkpt lat="45.59679854864074" lon="10.12136469348623"><ele>165.33333333333334</ele><time>2026-04-07T16:40:13.987Z</time></trkpt><trkpt lat="45.5967753110803" lon="10.12147765318076"><ele>165.16666666666666</ele><time>2026-04-07T16:40:16.987Z</time></trkpt><trkpt lat="45.596758874640365" lon="10.121575682641415"><ele>165.0</ele><time>2026-04-07T16:40:19.987Z</time></trkpt><trkpt lat="45.596733886352084" lon="10.121676153174302"><ele>165.00000000000003</ele><time>2026-04-07T16:40:22.987Z</time></trkpt><trkpt lat="45.59671641637111" lon="10.121783275763391"><ele>165.0</ele><time>2026-04-07T16:40:25.987Z</time></trkpt><trkpt lat="45.59669072304684" lon="10.121868751946208"><ele>165.0</ele><time>2026-04-07T16:40:28.987Z</time></trkpt><trkpt lat="45.59665992780551" lon="10.121972771054757"><ele>165.0</ele><time>2026-04-07T16:40:31.987Z</time></trkpt><trkpt lat="45.596644096439256" lon="10.122068790670442"><ele>165.0</ele><time>2026-04-07T16:40:34.987Z</time></trkpt><trkpt lat="45.59663050376042" lon="10.122179631987143"><ele>165.00000000000003</ele><time>2026-04-07T16:40:37.987Z</time></trkpt><trkpt lat="45.59662148066157" lon="10.122293452197104"><ele>165.0</ele><time>2026-04-07T16:40:40.986Z</time></trkpt><trkpt lat="45.59661570060566" lon="10.122407260732006"><ele>165.16666666666666</ele><time>2026-04-07T16:40:43.986Z</time></trkpt><trkpt lat="45.596624451586955" lon="10.122506877926275"><ele>165.33333333333334</ele><time>2026-04-07T16:40:46.986Z</time></trkpt><trkpt lat="45.59662857433885" lon="10.122613501273992"><ele>165.5</ele><time>2026-04-07T16:40:49.986Z</time></trkpt><trkpt lat="45.596616510501896" lon="10.122735408951847"><ele>165.66666666666669</ele><time>2026-04-07T16:40:52.986Z</time></trkpt><trkpt lat="45.59660663852708" lon="10.12284090953801"><ele>165.83333333333334</ele><time>2026-04-07T16:40:55.986Z</time></trkpt><trkpt lat="45.59659790650165" lon="10.122941881555121"><ele>166.0</ele><time>2026-04-07T16:40:58.986Z</time></trkpt><trkpt lat="45.59658269390995" lon="10.123054093689657"><ele>166.0</ele><time>2026-04-07T16:41:01.986Z</time></trkpt><trkpt lat="45.59660564302434" lon="10.123159297622431"><ele>166.0</ele><time>2026-04-07T16:41:04.986Z</time></trkpt><trkpt lat="45.596594950068656" lon="10.123258630737634"><ele>166.0</ele><time>2026-04-07T16:41:07.986Z</time></trkpt><trkpt lat="45.59659213509803" lon="10.12336966259104"><ele>166.0</ele><time>2026-04-07T16:41:10.986Z</time></trkpt><trkpt lat="45.59659492514256" lon="10.123484566499897"><ele>166.0</ele><time>2026-04-07T16:41:13.986Z</time></trkpt><trkpt lat="45.596580058129334" lon="10.12360396910732"><ele>166.0</ele><time>2026-04-07T16:41:17.986Z</time></trkpt><trkpt lat="45.59658545067848" lon="10.123698015217581"><ele>166.28571428571428</ele><time>2026-04-07T16:41:19.986Z</time></trkpt><trkpt lat="45.59657189926319" lon="10.123799724873585"><ele>166.57142857142858</ele><time>2026-04-07T16:41:22.986Z</time></trkpt><trkpt lat="45.59656188152621" lon="10.123899003645295"><ele>166.85714285714286</ele><time>2026-04-07T16:41:26.986Z</time></trkpt><trkpt lat="45.596569367618265" lon="10.124008141832789"><ele>167.14285714285714</ele><time>2026-04-07T16:41:29.986Z</time></trkpt><trkpt lat="45.596553822310156" lon="10.124102882943637"><ele>167.42857142857144</ele><time>2026-04-07T16:41:32.986Z</time></trkpt><trkpt lat="45.59653562641498" lon="10.124208567768957"><ele>167.71428571428572</ele><time>2026-04-07T16:41:36.986Z</time></trkpt><trkpt lat="45.596515050386905" lon="10.124303070954305"><ele>168.0</ele><time>2026-04-07T16:41:39.986Z</time></trkpt><trkpt lat="45.596503667903924" lon="10.124432035435884"><ele>168.0</ele><time>2026-04-07T16:41:42.986Z</time></trkpt><trkpt lat="45.59652838328257" lon="10.124544023114657"><ele>168.0</ele><time>2026-04-07T16:41:45.986Z</time></trkpt><trkpt lat="45.596544179145354" lon="10.124659957667742"><ele>168.0</ele><time>2026-04-07T16:41:48.986Z</time></trkpt><trkpt lat="45.596541150373504" lon="10.124772717672055"><ele>168.0</ele><time>2026-04-07T16:41:51.986Z</time></trkpt><trkpt lat="45.59652035793883" lon="10.12489551762983"><ele>168.0</ele><time>2026-04-07T16:41:54.986Z</time></trkpt><trkpt lat="45.59654537346691" lon="10.12500000894174"><ele>168.0</ele><time>2026-04-07T16:41:57.986Z</time></trkpt><trkpt lat="45.59653744384554" lon="10.125110310447488"><ele>168.0</ele><time>2026-04-07T16:42:00.986Z</time></trkpt><trkpt lat="45.59652699792204" lon="10.12520315828209"><ele>168.0</ele><time>2026-04-07T16:42:03.986Z</time></trkpt><trkpt lat="45.59651485457109" lon="10.125318664448205"><ele>168.0</ele><time>2026-04-07T16:42:06.986Z</time></trkpt><trkpt lat="45.59651679548163" lon="10.125422981285126"><ele>168.0</ele><time>2026-04-07T16:42:09.986Z</time></trkpt><trkpt lat="45.59651905077154" lon="10.12551834211848"><ele>168.0</ele><time>2026-04-07T16:42:12.986Z</time></trkpt><trkpt lat="45.59650919030732" lon="10.125624976799411"><ele>168.0</ele><time>2026-04-07T16:42:15.986Z</time></trkpt><trkpt lat="45.59651435494593" lon="10.125734047066645"><ele>168.0</ele><time>2026-04-07T16:42:18.986Z</time></trkpt><trkpt lat="45.59650702576722" lon="10.125840180188886"><ele>168.0</ele><time>2026-04-07T16:42:21.986Z</time></trkpt><trkpt lat="45.596510081867756" lon="10.125947982183073"><ele>168.0</ele><time>2026-04-07T16:42:24.986Z</time></trkpt><trkpt lat="45.59651338460139" lon="10.126060868038971"><ele>168.0</ele><time>2026-04-07T16:42:27.986Z</time></trkpt><trkpt lat="45.596500019391534" lon="10.126169007331034"><ele>168.0</ele><time>2026-04-07T16:42:30.986Z</time></trkpt><trkpt lat="45.59649675486567" lon="10.126293514132032"><ele>168.0</ele><time>2026-04-07T16:42:34.986Z</time></trkpt><trkpt lat="45.596487019226345" lon="10.126399281934939"><ele>168.0</ele><time>2026-04-07T16:42:37.986Z</time></trkpt><trkpt lat="45.59648755442503" lon="10.126501927693933"><ele>167.5</ele><time>2026-04-07T16:42:40.986Z</time></trkpt><trkpt lat="45.596484141864956" lon="10.126619594007439"><ele>167.0</ele><time>2026-04-07T16:42:43.986Z</time></trkpt><trkpt lat="45.59648259483238" lon="10.126738289990477"><ele>166.5</ele><time>2026-04-07T16:42:46.986Z</time></trkpt><trkpt lat="45.596480612690556" lon="10.126845366297292"><ele>166.0</ele><time>2026-04-07T16:42:49.986Z</time></trkpt><trkpt lat="45.59646748751315" lon="10.126943080271776"><ele>165.5</ele><time>2026-04-07T16:42:52.986Z</time></trkpt><trkpt lat="45.596469659877805" lon="10.127064564975077"><ele>165.0</ele><time>2026-04-07T16:42:55.986Z</time></trkpt><trkpt lat="45.59646761997576" lon="10.12717165536827"><ele>165.0</ele><time>2026-04-07T16:42:58.985Z</time></trkpt><trkpt lat="45.59646209032973" lon="10.12728424063947"><ele>165.0</ele><time>2026-04-07T16:43:01.985Z</time></trkpt><trkpt lat="45.59647379437595" lon="10.127397164743888"><ele>165.0</ele><time>2026-04-07T16:43:04.985Z</time></trkpt><trkpt lat="45.596486576356426" lon="10.127508665108142"><ele>165.0</ele><time>2026-04-07T16:43:07.985Z</time></trkpt><trkpt lat="45.596496957084035" lon="10.127622010172116"><ele>165.0</ele><time>2026-04-07T16:43:10.985Z</time></trkpt><trkpt lat="45.59650420118277" lon="10.127724674852683"><ele>165.0</ele><time>2026-04-07T16:43:13.985Z</time></trkpt><trkpt lat="45.59651498125723" lon="10.12782420119877"><ele>164.71428571428572</ele><time>2026-04-07T16:43:16.985Z</time></trkpt><trkpt lat="45.59652644941759" lon="10.127925216714148"><ele>164.42857142857144</ele><time>2026-04-07T16:43:19.985Z</time></trkpt><trkpt lat="45.59655011008026" lon="10.128014883367904"><ele>164.14285714285717</ele><time>2026-04-07T16:43:22.985Z</time></trkpt><trkpt lat="45.59655916800764" lon="10.12811251169612"><ele>163.85714285714286</ele><time>2026-04-07T16:43:25.985Z</time></trkpt><trkpt lat="45.59657765540272" lon="10.128211163161463"><ele>163.57142857142856</ele><time>2026-04-07T16:43:28.985Z</time></trkpt><trkpt lat="45.59659816582874" lon="10.128316770467901"><ele>163.2857142857143</ele><time>2026-04-07T16:43:31.985Z</time></trkpt><trkpt lat="45.59661043874032" lon="10.128417345538983"><ele>163.0</ele><time>2026-04-07T16:43:34.985Z</time></trkpt><trkpt lat="45.596622580809544" lon="10.128511890821327"><ele>163.0</ele><time>2026-04-07T16:43:37.985Z</time></trkpt><trkpt lat="45.59664064493467" lon="10.128613998122887"><ele>163.0</ele><time>2026-04-07T16:43:40.985Z</time></trkpt><trkpt lat="45.59665652303356" lon="10.128714315661028"><ele>163.0</ele><time>2026-04-07T16:43:43.985Z</time></trkpt><trkpt lat="45.596669283223704" lon="10.128813380152192"><ele>163.0</ele><time>2026-04-07T16:43:46.985Z</time></trkpt><trkpt lat="45.59667956767919" lon="10.12890914877"><ele>163.0</ele><time>2026-04-07T16:43:49.985Z</time></trkpt><trkpt lat="45.596722115501805" lon="10.12899615176252"><ele>163.0</ele><time>2026-04-07T16:43:52.985Z</time></trkpt><trkpt lat="45.59676195461156" lon="10.129081776204542"><ele>163.0</ele><time>2026-04-07T16:43:55.985Z</time></trkpt><trkpt lat="45.596786078441205" lon="10.129175952716437"><ele>163.0</ele><time>2026-04-07T16:43:58.985Z</time></trkpt><trkpt lat="45.5967980732456" lon="10.129272621040082"><ele>163.0</ele><time>2026-04-07T16:44:01.985Z</time></trkpt><trkpt lat="45.59681067840397" lon="10.129371161093227"><ele>163.0</ele><time>2026-04-07T16:44:04.985Z</time></trkpt><trkpt lat="45.59680964871969" lon="10.129473909253939"><ele>163.0</ele><time>2026-04-07T16:44:07.985Z</time></trkpt><trkpt lat="45.59681539795928" lon="10.129569929708653"><ele>163.0</ele><time>2026-04-07T16:44:10.985Z</time></trkpt><trkpt lat="45.59682015967117" lon="10.129673480581863"><ele>163.0</ele><time>2026-04-07T16:44:13.985Z</time></trkpt><trkpt lat="45.59680602692935" lon="10.129784604500054"><ele>163.0</ele><time>2026-04-07T16:44:16.985Z</time></trkpt><trkpt lat="45.59679373316189" lon="10.129891379900403"><ele>163.0</ele><time>2026-04-07T16:44:19.985Z</time></trkpt><trkpt lat="45.596787922014954" lon="10.129986575287814"><ele>163.0</ele><time>2026-04-07T16:44:22.985Z</time></trkpt><trkpt lat="45.59679980987699" lon="10.130081522629006"><ele>163.0</ele><time>2026-04-07T16:44:25.985Z</time></trkpt><trkpt lat="45.59679287764187" lon="10.130194860678051"><ele>163.0</ele><time>2026-04-07T16:44:28.985Z</time></trkpt><trkpt lat="45.59678432347759" lon="10.13029321495946"><ele>163.0</ele><time>2026-04-07T16:44:31.985Z</time></trkpt><trkpt lat="45.596790562016906" lon="10.130392190530294"><ele>163.0</ele><time>2026-04-07T16:44:34.985Z</time></trkpt><trkpt lat="45.59679070495652" lon="10.130491919814332"><ele>163.0</ele><time>2026-04-07T16:44:37.985Z</time></trkpt><trkpt lat="45.59677363767942" lon="10.13059692982129"><ele>163.0</ele><time>2026-04-07T16:44:40.985Z</time></trkpt><trkpt lat="45.596776737461525" lon="10.130698367988721"><ele>163.0</ele><time>2026-04-07T16:44:43.985Z</time></trkpt><trkpt lat="45.596770097399734" lon="10.13080263039163"><ele>163.0</ele><time>2026-04-07T16:44:46.985Z</time></trkpt><trkpt lat="45.596773126738725" lon="10.130901622085092"><ele>163.0</ele><time>2026-04-07T16:44:49.985Z</time></trkpt><trkpt lat="45.59678211441378" lon="10.131009862595006"><ele>163.0</ele><time>2026-04-07T16:44:52.985Z</time></trkpt><trkpt lat="45.59676519376505" lon="10.131111891625455"><ele>163.0</ele><time>2026-04-07T16:44:55.985Z</time></trkpt><trkpt lat="45.59673437330888" lon="10.131216950885603"><ele>163.0</ele><time>2026-04-07T16:44:58.985Z</time></trkpt><trkpt lat="45.59670456449898" lon="10.131306345041185"><ele>163.16666666666669</ele><time>2026-04-07T16:45:01.985Z</time></trkpt><trkpt lat="45.59668069764945" lon="10.13141071636597"><ele>163.33333333333334</ele><time>2026-04-07T16:45:04.984Z</time></trkpt><trkpt lat="45.596651697582814" lon="10.131509548485386"><ele>163.5</ele><time>2026-04-07T16:45:07.984Z</time></trkpt><trkpt lat="45.59663990459712" lon="10.131613456929728"><ele>163.66666666666666</ele><time>2026-04-07T16:45:10.984Z</time></trkpt><trkpt lat="45.59663305265595" lon="10.131724170047368"><ele>163.83333333333331</ele><time>2026-04-07T16:45:13.985Z</time></trkpt><trkpt lat="45.59661586527544" lon="10.131819440581129"><ele>164.0</ele><time>2026-04-07T16:45:16.985Z</time></trkpt><trkpt lat="45.59654471692034" lon="10.131872342006076"><ele>164.5</ele><time>2026-04-07T16:45:20.985Z</time></trkpt><trkpt lat="45.596524054838284" lon="10.131961116610402"><ele>165.0</ele><time>2026-04-07T16:45:22.985Z</time></trkpt><trkpt lat="45.5964904199714" lon="10.132072094172312"><ele>165.5</ele><time>2026-04-07T16:45:25.985Z</time></trkpt><trkpt lat="45.596431971767636" lon="10.13214498449326"><ele>166.0</ele><time>2026-04-07T16:45:28.985Z</time></trkpt><trkpt lat="45.59635364143165" lon="10.132139791321476"><ele>166.5</ele><time>2026-04-07T16:45:31.985Z</time></trkpt><trkpt lat="45.59628921026937" lon="10.132109558839716"><ele>167.0</ele><time>2026-04-07T16:45:34.985Z</time></trkpt><trkpt lat="45.596213347274634" lon="10.132056214791028"><ele>166.66666666666666</ele><time>2026-04-07T16:45:37.985Z</time></trkpt><trkpt lat="45.596150031210875" lon="10.131985097429828"><ele>166.33333333333331</ele><time>2026-04-07T16:45:40.985Z</time></trkpt><trkpt lat="45.59609206985964" lon="10.131922741737903"><ele>166.0</ele><time>2026-04-07T16:45:43.985Z</time></trkpt><trkpt lat="45.59602748176687" lon="10.131854974424105"><ele>165.66666666666666</ele><time>2026-04-07T16:45:46.985Z</time></trkpt><trkpt lat="45.59595844348692" lon="10.131794637075155"><ele>165.33333333333334</ele><time>2026-04-07T16:45:49.985Z</time></trkpt><trkpt lat="45.595888224322174" lon="10.131731595735587"><ele>165.0</ele><time>2026-04-07T16:45:52.985Z</time></trkpt><trkpt lat="45.595816929126194" lon="10.131673649461044"><ele>165.00000000000003</ele><time>2026-04-07T16:45:55.985Z</time></trkpt><trkpt lat="45.59575803024117" lon="10.131624160580637"><ele>165.0</ele><time>2026-04-07T16:45:58.985Z</time></trkpt><trkpt lat="45.59568969401216" lon="10.13157891979385"><ele>165.0</ele><time>2026-04-07T16:46:01.985Z</time></trkpt><trkpt lat="45.59561988916547" lon="10.131554441444576"><ele>165.0</ele><time>2026-04-07T16:46:05.985Z</time></trkpt><trkpt lat="45.59555255954563" lon="10.131573280455006"><ele>165.0</ele><time>2026-04-07T16:46:08.985Z</time></trkpt><trkpt lat="45.59548505048715" lon="10.131578458866793"><ele>165.00000000000003</ele><time>2026-04-07T16:46:11.985Z</time></trkpt><trkpt lat="45.59541125948597" lon="10.131576450918617"><ele>165.0</ele><time>2026-04-07T16:46:14.985Z</time></trkpt><trkpt lat="45.59533558541544" lon="10.131559481036383"><ele>164.2857142857143</ele><time>2026-04-07T16:46:17.985Z</time></trkpt><trkpt lat="45.595257633648096" lon="10.131553035475521"><ele>163.57142857142858</ele><time>2026-04-07T16:46:20.985Z</time></trkpt><trkpt lat="45.59518630275351" lon="10.131563034600768"><ele>162.85714285714286</ele><time>2026-04-07T16:46:23.985Z</time></trkpt><trkpt lat="45.59511094282663" lon="10.131556500231808"><ele>162.14285714285717</ele><time>2026-04-07T16:46:26.985Z</time></trkpt><trkpt lat="45.595043343039336" lon="10.131578516597212"><ele>161.42857142857144</ele><time>2026-04-07T16:46:29.985Z</time></trkpt><trkpt lat="45.59499088778993" lon="10.131636980656848"><ele>160.71428571428572</ele><time>2026-04-07T16:46:32.985Z</time></trkpt><trkpt lat="45.59496558283071" lon="10.131734026310252"><ele>160.0</ele><time>2026-04-07T16:46:35.985Z</time></trkpt><trkpt lat="45.594947707219276" lon="10.131832548826507"><ele>160.0</ele><time>2026-04-07T16:46:38.985Z</time></trkpt><trkpt lat="45.594932904180816" lon="10.131930990147687"><ele>160.0</ele><time>2026-04-07T16:46:41.985Z</time></trkpt><trkpt lat="45.59491012415091" lon="10.13205270773269"><ele>160.0</ele><time>2026-04-07T16:46:45.985Z</time></trkpt><trkpt lat="45.59489072206279" lon="10.13216778530643"><ele>160.0</ele><time>2026-04-07T16:46:49.985Z</time></trkpt><trkpt lat="45.594868521538665" lon="10.132263888627989"><ele>160.0</ele><time>2026-04-07T16:46:52.985Z</time></trkpt><trkpt lat="45.594847602280566" lon="10.13238340011508"><ele>160.0</ele><time>2026-04-07T16:46:55.985Z</time></trkpt><trkpt lat="45.59483623259688" lon="10.132477940831656"><ele>160.14285714285714</ele><time>2026-04-07T16:46:58.984Z</time></trkpt><trkpt lat="45.59481586504314" lon="10.132591286321214"><ele>160.28571428571428</ele><time>2026-04-07T16:47:01.985Z</time></trkpt><trkpt lat="45.59480133461564" lon="10.132686861858408"><ele>160.42857142857144</ele><time>2026-04-07T16:47:04.984Z</time></trkpt><trkpt lat="45.594792698547565" lon="10.13280581147623"><ele>160.57142857142856</ele><time>2026-04-07T16:47:07.984Z</time></trkpt><trkpt lat="45.59477411908656" lon="10.132912630783924"><ele>160.71428571428572</ele><time>2026-04-07T16:47:10.984Z</time></trkpt><trkpt lat="45.594754976071705" lon="10.133001890399699"><ele>160.85714285714286</ele><time>2026-04-07T16:47:13.984Z</time></trkpt><trkpt lat="45.594743475906014" lon="10.133101966661089"><ele>161.0</ele><time>2026-04-07T16:47:16.984Z</time></trkpt><trkpt lat="45.59470828927916" lon="10.133183638163148"><ele>161.42857142857142</ele><time>2026-04-07T16:47:19.984Z</time></trkpt><trkpt lat="45.59469169047715" lon="10.133290097955975"><ele>161.85714285714286</ele><time>2026-04-07T16:47:22.984Z</time></trkpt><trkpt lat="45.59468057151287" lon="10.133389218913019"><ele>162.28571428571428</ele><time>2026-04-07T16:47:25.984Z</time></trkpt><trkpt lat="45.59467539163619" lon="10.133495290187618"><ele>162.71428571428572</ele><time>2026-04-07T16:47:28.984Z</time></trkpt><trkpt lat="45.59465747716742" lon="10.13359397222774"><ele>163.14285714285714</ele><time>2026-04-07T16:47:31.984Z</time></trkpt><trkpt lat="45.59464752560076" lon="10.13370404118933"><ele>163.57142857142856</ele><time>2026-04-07T16:47:34.984Z</time></trkpt><trkpt lat="45.59464050564221" lon="10.133801414115954"><ele>164.0</ele><time>2026-04-07T16:47:37.984Z</time></trkpt><trkpt lat="45.594630561578526" lon="10.133906605883796"><ele>163.99999999999997</ele><time>2026-04-07T16:47:40.984Z</time></trkpt><trkpt lat="45.59460908175218" lon="10.13401785119152"><ele>164.0</ele><time>2026-04-07T16:47:43.984Z</time></trkpt><trkpt lat="45.5945940355326" lon="10.134126335512338"><ele>164.0</ele><time>2026-04-07T16:47:46.984Z</time></trkpt><trkpt lat="45.594587419578296" lon="10.134229701346452"><ele>164.0</ele><time>2026-04-07T16:47:49.984Z</time></trkpt><trkpt lat="45.59456791130846" lon="10.13433166153102"><ele>164.0</ele><time>2026-04-07T16:47:52.984Z</time></trkpt><trkpt lat="45.59455133235747" lon="10.134445546757581"><ele>163.99999999999997</ele><time>2026-04-07T16:47:56.984Z</time></trkpt><trkpt lat="45.59451136141612" lon="10.134515844583165"><ele>164.0</ele><time>2026-04-07T16:48:04.984Z</time></trkpt><trkpt lat="45.594549272374806" lon="10.134592194106713"><ele>164.0</ele><time>2026-04-07T16:48:31.984Z</time></trkpt></trkseg></trk></gpx>